<?xml version="1.0" encoding="UTF-8" standalone="no" ?>
<gpx xmlns="http://www.topografix.com/GPX/1/1" xmlns:xsi="http://www.w3.org/2001/XMLSchema-instance" xsi:schemaLocation="http://www.topografix.com/GPX/1/1 http://www.topografix.com/GPX/1/1/gpx.xsd" version="1.1" creator="VisuGPX - https://www.visugpx.com">
  <metadata>
    <name>LORGUES LE CONTENT</name>
    <desc><![CDATA[Petite rando autour du château Roubine]]></desc>
  </metadata>
  <trk>
    <name><![CDATA[Tracé actuel: 14 SEP 2015 08:16]]></name>
    <trkseg>
      <trkpt lat="43.50129" lon="6.41976">
        <ele>283.73</ele>
        <time>2015-09-14T06:16:24Z</time>
      </trkpt>
      <trkpt lat="43.50137" lon="6.41961">
        <ele>280.84</ele>
        <time>2015-09-14T06:16:41Z</time>
      </trkpt>
      <trkpt lat="43.50136" lon="6.4196">
        <ele>275.56</ele>
        <time>2015-09-14T06:16:43Z</time>
      </trkpt>
      <trkpt lat="43.50136" lon="6.4196">
        <ele>270.27</ele>
        <time>2015-09-14T06:16:45Z</time>
      </trkpt>
      <trkpt lat="43.50136" lon="6.4196">
        <ele>265.94</ele>
        <time>2015-09-14T06:16:47Z</time>
      </trkpt>
      <trkpt lat="43.50135" lon="6.4196">
        <ele>261.14</ele>
        <time>2015-09-14T06:16:49Z</time>
      </trkpt>
      <trkpt lat="43.50136" lon="6.41961">
        <ele>257.29</ele>
        <time>2015-09-14T06:16:51Z</time>
      </trkpt>
      <trkpt lat="43.50136" lon="6.41962">
        <ele>253.44</ele>
        <time>2015-09-14T06:16:53Z</time>
      </trkpt>
      <trkpt lat="43.50137" lon="6.41963">
        <ele>249.6</ele>
        <time>2015-09-14T06:16:55Z</time>
      </trkpt>
      <trkpt lat="43.50137" lon="6.41963">
        <ele>246.23</ele>
        <time>2015-09-14T06:16:57Z</time>
      </trkpt>
      <trkpt lat="43.50137" lon="6.41964">
        <ele>241.91</ele>
        <time>2015-09-14T06:16:59Z</time>
      </trkpt>
      <trkpt lat="43.50139" lon="6.41966">
        <ele>238.54</ele>
        <time>2015-09-14T06:17:02Z</time>
      </trkpt>
      <trkpt lat="43.50141" lon="6.41968">
        <ele>233.74</ele>
        <time>2015-09-14T06:17:05Z</time>
      </trkpt>
      <trkpt lat="43.50142" lon="6.41968">
        <ele>234.7</ele>
        <time>2015-09-14T06:17:06Z</time>
      </trkpt>
      <trkpt lat="43.50145" lon="6.41969">
        <ele>231.81</ele>
        <time>2015-09-14T06:17:09Z</time>
      </trkpt>
      <trkpt lat="43.50147" lon="6.41969">
        <ele>228.93</ele>
        <time>2015-09-14T06:17:15Z</time>
      </trkpt>
      <trkpt lat="43.50149" lon="6.41964">
        <ele>227.49</ele>
        <time>2015-09-14T06:17:29Z</time>
      </trkpt>
      <trkpt lat="43.50145" lon="6.41961">
        <ele>227.01</ele>
        <time>2015-09-14T06:18:02Z</time>
      </trkpt>
      <trkpt lat="43.50144" lon="6.41962">
        <ele>227.01</ele>
        <time>2015-09-14T06:18:13Z</time>
      </trkpt>
      <trkpt lat="43.50136" lon="6.41964">
        <ele>228.45</ele>
        <time>2015-09-14T06:18:27Z</time>
      </trkpt>
      <trkpt lat="43.50134" lon="6.41967">
        <ele>228.45</ele>
        <time>2015-09-14T06:18:41Z</time>
      </trkpt>
      <trkpt lat="43.50128" lon="6.41969">
        <ele>228.93</ele>
        <time>2015-09-14T06:19:00Z</time>
      </trkpt>
      <trkpt lat="43.50123" lon="6.4197">
        <ele>229.41</ele>
        <time>2015-09-14T06:19:04Z</time>
      </trkpt>
      <trkpt lat="43.50115" lon="6.41971">
        <ele>229.89</ele>
        <time>2015-09-14T06:19:10Z</time>
      </trkpt>
      <trkpt lat="43.50094" lon="6.41974">
        <ele>231.33</ele>
        <time>2015-09-14T06:19:25Z</time>
      </trkpt>
      <trkpt lat="43.50077" lon="6.41974">
        <ele>232.78</ele>
        <time>2015-09-14T06:19:40Z</time>
      </trkpt>
      <trkpt lat="43.50067" lon="6.41976">
        <ele>233.74</ele>
        <time>2015-09-14T06:19:47Z</time>
      </trkpt>
      <trkpt lat="43.50043" lon="6.41993">
        <ele>235.18</ele>
        <time>2015-09-14T06:20:05Z</time>
      </trkpt>
      <trkpt lat="43.50029" lon="6.42014">
        <ele>236.14</ele>
        <time>2015-09-14T06:20:18Z</time>
      </trkpt>
      <trkpt lat="43.50024" lon="6.42026">
        <ele>236.14</ele>
        <time>2015-09-14T06:20:31Z</time>
      </trkpt>
      <trkpt lat="43.50019" lon="6.42028">
        <ele>236.14</ele>
        <time>2015-09-14T06:20:43Z</time>
      </trkpt>
      <trkpt lat="43.50014" lon="6.42044">
        <ele>236.14</ele>
        <time>2015-09-14T06:20:53Z</time>
      </trkpt>
      <trkpt lat="43.50001" lon="6.42067">
        <ele>236.14</ele>
        <time>2015-09-14T06:21:09Z</time>
      </trkpt>
      <trkpt lat="43.49996" lon="6.42077">
        <ele>236.14</ele>
        <time>2015-09-14T06:21:15Z</time>
      </trkpt>
      <trkpt lat="43.49991" lon="6.42084">
        <ele>235.66</ele>
        <time>2015-09-14T06:21:20Z</time>
      </trkpt>
      <trkpt lat="43.49987" lon="6.42092">
        <ele>235.66</ele>
        <time>2015-09-14T06:21:24Z</time>
      </trkpt>
      <trkpt lat="43.49975" lon="6.4211">
        <ele>234.7</ele>
        <time>2015-09-14T06:21:37Z</time>
      </trkpt>
      <trkpt lat="43.49966" lon="6.42132">
        <ele>233.26</ele>
        <time>2015-09-14T06:21:51Z</time>
      </trkpt>
      <trkpt lat="43.49963" lon="6.42144">
        <ele>233.26</ele>
        <time>2015-09-14T06:21:58Z</time>
      </trkpt>
      <trkpt lat="43.49953" lon="6.42166">
        <ele>232.78</ele>
        <time>2015-09-14T06:22:13Z</time>
      </trkpt>
      <trkpt lat="43.49952" lon="6.42172">
        <ele>232.78</ele>
        <time>2015-09-14T06:22:19Z</time>
      </trkpt>
      <trkpt lat="43.49948" lon="6.42175">
        <ele>232.78</ele>
        <time>2015-09-14T06:22:24Z</time>
      </trkpt>
      <trkpt lat="43.49941" lon="6.42189">
        <ele>232.78</ele>
        <time>2015-09-14T06:22:36Z</time>
      </trkpt>
      <trkpt lat="43.49938" lon="6.42198">
        <ele>232.78</ele>
        <time>2015-09-14T06:22:43Z</time>
      </trkpt>
      <trkpt lat="43.49934" lon="6.42214">
        <ele>232.78</ele>
        <time>2015-09-14T06:22:54Z</time>
      </trkpt>
      <trkpt lat="43.49932" lon="6.42217">
        <ele>232.78</ele>
        <time>2015-09-14T06:22:57Z</time>
      </trkpt>
      <trkpt lat="43.4993" lon="6.42219">
        <ele>232.78</ele>
        <time>2015-09-14T06:22:59Z</time>
      </trkpt>
      <trkpt lat="43.49919" lon="6.42235">
        <ele>233.26</ele>
        <time>2015-09-14T06:23:14Z</time>
      </trkpt>
      <trkpt lat="43.49914" lon="6.42239">
        <ele>233.74</ele>
        <time>2015-09-14T06:23:31Z</time>
      </trkpt>
      <trkpt lat="43.49915" lon="6.42239">
        <ele>234.22</ele>
        <time>2015-09-14T06:23:57Z</time>
      </trkpt>
      <trkpt lat="43.49912" lon="6.42239">
        <ele>234.7</ele>
        <time>2015-09-14T06:24:27Z</time>
      </trkpt>
      <trkpt lat="43.49898" lon="6.42241">
        <ele>234.22</ele>
        <time>2015-09-14T06:24:42Z</time>
      </trkpt>
      <trkpt lat="43.49885" lon="6.4224">
        <ele>234.7</ele>
        <time>2015-09-14T06:24:57Z</time>
      </trkpt>
      <trkpt lat="43.4987" lon="6.42244">
        <ele>233.74</ele>
        <time>2015-09-14T06:25:12Z</time>
      </trkpt>
      <trkpt lat="43.49864" lon="6.42248">
        <ele>233.74</ele>
        <time>2015-09-14T06:25:24Z</time>
      </trkpt>
      <trkpt lat="43.49856" lon="6.42251">
        <ele>234.22</ele>
        <time>2015-09-14T06:25:36Z</time>
      </trkpt>
      <trkpt lat="43.49855" lon="6.42251">
        <ele>234.22</ele>
        <time>2015-09-14T06:25:45Z</time>
      </trkpt>
      <trkpt lat="43.49843" lon="6.42247">
        <ele>233.26</ele>
        <time>2015-09-14T06:25:56Z</time>
      </trkpt>
      <trkpt lat="43.49831" lon="6.4225">
        <ele>233.26</ele>
        <time>2015-09-14T06:26:08Z</time>
      </trkpt>
      <trkpt lat="43.49817" lon="6.42257">
        <ele>232.78</ele>
        <time>2015-09-14T06:26:21Z</time>
      </trkpt>
      <trkpt lat="43.49797" lon="6.42267">
        <ele>233.26</ele>
        <time>2015-09-14T06:26:36Z</time>
      </trkpt>
      <trkpt lat="43.49796" lon="6.42268">
        <ele>233.26</ele>
        <time>2015-09-14T06:26:37Z</time>
      </trkpt>
      <trkpt lat="43.4978" lon="6.42281">
        <ele>233.74</ele>
        <time>2015-09-14T06:26:52Z</time>
      </trkpt>
      <trkpt lat="43.49774" lon="6.42286">
        <ele>234.22</ele>
        <time>2015-09-14T06:27:00Z</time>
      </trkpt>
      <trkpt lat="43.49772" lon="6.42287">
        <ele>234.22</ele>
        <time>2015-09-14T06:27:02Z</time>
      </trkpt>
      <trkpt lat="43.49759" lon="6.42298">
        <ele>235.18</ele>
        <time>2015-09-14T06:27:16Z</time>
      </trkpt>
      <trkpt lat="43.49757" lon="6.42301">
        <ele>235.66</ele>
        <time>2015-09-14T06:27:18Z</time>
      </trkpt>
      <trkpt lat="43.49742" lon="6.42318">
        <ele>236.62</ele>
        <time>2015-09-14T06:27:37Z</time>
      </trkpt>
      <trkpt lat="43.49732" lon="6.42327">
        <ele>237.1</ele>
        <time>2015-09-14T06:27:47Z</time>
      </trkpt>
      <trkpt lat="43.49711" lon="6.42338">
        <ele>237.1</ele>
        <time>2015-09-14T06:28:04Z</time>
      </trkpt>
      <trkpt lat="43.49696" lon="6.42342">
        <ele>236.14</ele>
        <time>2015-09-14T06:28:18Z</time>
      </trkpt>
      <trkpt lat="43.49688" lon="6.42349">
        <ele>236.14</ele>
        <time>2015-09-14T06:28:26Z</time>
      </trkpt>
      <trkpt lat="43.49675" lon="6.42359">
        <ele>236.14</ele>
        <time>2015-09-14T06:28:36Z</time>
      </trkpt>
      <trkpt lat="43.4967" lon="6.42362">
        <ele>235.18</ele>
        <time>2015-09-14T06:28:51Z</time>
      </trkpt>
      <trkpt lat="43.49659" lon="6.42367">
        <ele>234.7</ele>
        <time>2015-09-14T06:29:04Z</time>
      </trkpt>
      <trkpt lat="43.49647" lon="6.42389">
        <ele>234.22</ele>
        <time>2015-09-14T06:29:19Z</time>
      </trkpt>
      <trkpt lat="43.49647" lon="6.42389">
        <ele>234.22</ele>
        <time>2015-09-14T06:29:33Z</time>
      </trkpt>
      <trkpt lat="43.49641" lon="6.42396">
        <ele>234.22</ele>
        <time>2015-09-14T06:29:51Z</time>
      </trkpt>
      <trkpt lat="43.49634" lon="6.42413">
        <ele>233.74</ele>
        <time>2015-09-14T06:30:05Z</time>
      </trkpt>
      <trkpt lat="43.4963" lon="6.42421">
        <ele>233.74</ele>
        <time>2015-09-14T06:30:21Z</time>
      </trkpt>
      <trkpt lat="43.49622" lon="6.42438">
        <ele>233.26</ele>
        <time>2015-09-14T06:30:34Z</time>
      </trkpt>
      <trkpt lat="43.49614" lon="6.42451">
        <ele>232.78</ele>
        <time>2015-09-14T06:30:48Z</time>
      </trkpt>
      <trkpt lat="43.49603" lon="6.42467">
        <ele>232.3</ele>
        <time>2015-09-14T06:31:04Z</time>
      </trkpt>
      <trkpt lat="43.49593" lon="6.42481">
        <ele>231.81</ele>
        <time>2015-09-14T06:31:17Z</time>
      </trkpt>
      <trkpt lat="43.4959" lon="6.42486">
        <ele>231.81</ele>
        <time>2015-09-14T06:31:21Z</time>
      </trkpt>
      <trkpt lat="43.49576" lon="6.42506">
        <ele>231.81</ele>
        <time>2015-09-14T06:31:39Z</time>
      </trkpt>
      <trkpt lat="43.49565" lon="6.42534">
        <ele>232.3</ele>
        <time>2015-09-14T06:31:56Z</time>
      </trkpt>
      <trkpt lat="43.49561" lon="6.42556">
        <ele>232.3</ele>
        <time>2015-09-14T06:32:11Z</time>
      </trkpt>
      <trkpt lat="43.49558" lon="6.42569">
        <ele>232.3</ele>
        <time>2015-09-14T06:32:20Z</time>
      </trkpt>
      <trkpt lat="43.49545" lon="6.42589">
        <ele>230.85</ele>
        <time>2015-09-14T06:32:34Z</time>
      </trkpt>
      <trkpt lat="43.4954" lon="6.42595">
        <ele>230.37</ele>
        <time>2015-09-14T06:32:49Z</time>
      </trkpt>
      <trkpt lat="43.4954" lon="6.42607">
        <ele>229.89</ele>
        <time>2015-09-14T06:33:02Z</time>
      </trkpt>
      <trkpt lat="43.49535" lon="6.42613">
        <ele>228.93</ele>
        <time>2015-09-14T06:33:15Z</time>
      </trkpt>
      <trkpt lat="43.49535" lon="6.42615">
        <ele>228.93</ele>
        <time>2015-09-14T06:33:37Z</time>
      </trkpt>
      <trkpt lat="43.49534" lon="6.42618">
        <ele>228.45</ele>
        <time>2015-09-14T06:33:41Z</time>
      </trkpt>
      <trkpt lat="43.49531" lon="6.42634">
        <ele>227.01</ele>
        <time>2015-09-14T06:33:56Z</time>
      </trkpt>
      <trkpt lat="43.49524" lon="6.42649">
        <ele>225.57</ele>
        <time>2015-09-14T06:34:11Z</time>
      </trkpt>
      <trkpt lat="43.49516" lon="6.42668">
        <ele>222.68</ele>
        <time>2015-09-14T06:34:25Z</time>
      </trkpt>
      <trkpt lat="43.49508" lon="6.42685">
        <ele>219.32</ele>
        <time>2015-09-14T06:34:40Z</time>
      </trkpt>
      <trkpt lat="43.49503" lon="6.42695">
        <ele>215.95</ele>
        <time>2015-09-14T06:34:54Z</time>
      </trkpt>
      <trkpt lat="43.49498" lon="6.42705">
        <ele>212.59</ele>
        <time>2015-09-14T06:35:06Z</time>
      </trkpt>
      <trkpt lat="43.49492" lon="6.42718">
        <ele>209.7</ele>
        <time>2015-09-14T06:35:19Z</time>
      </trkpt>
      <trkpt lat="43.4949" lon="6.42727">
        <ele>208.26</ele>
        <time>2015-09-14T06:35:32Z</time>
      </trkpt>
      <trkpt lat="43.49489" lon="6.42733">
        <ele>206.34</ele>
        <time>2015-09-14T06:35:50Z</time>
      </trkpt>
      <trkpt lat="43.49486" lon="6.42747">
        <ele>203.46</ele>
        <time>2015-09-14T06:36:03Z</time>
      </trkpt>
      <trkpt lat="43.49483" lon="6.42761">
        <ele>200.09</ele>
        <time>2015-09-14T06:36:16Z</time>
      </trkpt>
      <trkpt lat="43.49479" lon="6.42774">
        <ele>197.21</ele>
        <time>2015-09-14T06:36:30Z</time>
      </trkpt>
      <trkpt lat="43.49476" lon="6.42786">
        <ele>194.32</ele>
        <time>2015-09-14T06:36:42Z</time>
      </trkpt>
      <trkpt lat="43.49471" lon="6.42798">
        <ele>191.44</ele>
        <time>2015-09-14T06:36:55Z</time>
      </trkpt>
      <trkpt lat="43.49469" lon="6.42813">
        <ele>189.04</ele>
        <time>2015-09-14T06:37:08Z</time>
      </trkpt>
      <trkpt lat="43.49465" lon="6.42827">
        <ele>186.63</ele>
        <time>2015-09-14T06:37:21Z</time>
      </trkpt>
      <trkpt lat="43.49461" lon="6.42844">
        <ele>184.71</ele>
        <time>2015-09-14T06:37:35Z</time>
      </trkpt>
      <trkpt lat="43.4946" lon="6.42846">
        <ele>184.23</ele>
        <time>2015-09-14T06:37:49Z</time>
      </trkpt>
      <trkpt lat="43.49458" lon="6.42847">
        <ele>183.75</ele>
        <time>2015-09-14T06:38:04Z</time>
      </trkpt>
      <trkpt lat="43.49459" lon="6.42845">
        <ele>183.75</ele>
        <time>2015-09-14T06:38:25Z</time>
      </trkpt>
      <trkpt lat="43.49454" lon="6.42834">
        <ele>182.31</ele>
        <time>2015-09-14T06:38:38Z</time>
      </trkpt>
      <trkpt lat="43.4945" lon="6.42824">
        <ele>181.83</ele>
        <time>2015-09-14T06:38:48Z</time>
      </trkpt>
      <trkpt lat="43.49445" lon="6.42815">
        <ele>181.35</ele>
        <time>2015-09-14T06:38:58Z</time>
      </trkpt>
      <trkpt lat="43.49441" lon="6.42805">
        <ele>181.35</ele>
        <time>2015-09-14T06:39:06Z</time>
      </trkpt>
      <trkpt lat="43.49437" lon="6.428">
        <ele>180.87</ele>
        <time>2015-09-14T06:39:12Z</time>
      </trkpt>
      <trkpt lat="43.49433" lon="6.42788">
        <ele>180.38</ele>
        <time>2015-09-14T06:39:21Z</time>
      </trkpt>
      <trkpt lat="43.49426" lon="6.42781">
        <ele>180.38</ele>
        <time>2015-09-14T06:39:28Z</time>
      </trkpt>
      <trkpt lat="43.49421" lon="6.42776">
        <ele>180.38</ele>
        <time>2015-09-14T06:39:34Z</time>
      </trkpt>
      <trkpt lat="43.49416" lon="6.42771">
        <ele>180.38</ele>
        <time>2015-09-14T06:39:48Z</time>
      </trkpt>
      <trkpt lat="43.4941" lon="6.42761">
        <ele>180.87</ele>
        <time>2015-09-14T06:40:02Z</time>
      </trkpt>
      <trkpt lat="43.49404" lon="6.42756">
        <ele>180.38</ele>
        <time>2015-09-14T06:40:12Z</time>
      </trkpt>
      <trkpt lat="43.49399" lon="6.42751">
        <ele>180.38</ele>
        <time>2015-09-14T06:40:18Z</time>
      </trkpt>
      <trkpt lat="43.49397" lon="6.42749">
        <ele>180.87</ele>
        <time>2015-09-14T06:40:20Z</time>
      </trkpt>
      <trkpt lat="43.4939" lon="6.42742">
        <ele>181.35</ele>
        <time>2015-09-14T06:40:35Z</time>
      </trkpt>
      <trkpt lat="43.49384" lon="6.42731">
        <ele>182.31</ele>
        <time>2015-09-14T06:40:47Z</time>
      </trkpt>
      <trkpt lat="43.49377" lon="6.42719">
        <ele>182.31</ele>
        <time>2015-09-14T06:40:57Z</time>
      </trkpt>
      <trkpt lat="43.49372" lon="6.42715">
        <ele>182.31</ele>
        <time>2015-09-14T06:41:01Z</time>
      </trkpt>
      <trkpt lat="43.4936" lon="6.42699">
        <ele>181.83</ele>
        <time>2015-09-14T06:41:15Z</time>
      </trkpt>
      <trkpt lat="43.49358" lon="6.42695">
        <ele>181.83</ele>
        <time>2015-09-14T06:41:18Z</time>
      </trkpt>
      <trkpt lat="43.49357" lon="6.42692">
        <ele>181.83</ele>
        <time>2015-09-14T06:41:20Z</time>
      </trkpt>
      <trkpt lat="43.49344" lon="6.42679">
        <ele>181.35</ele>
        <time>2015-09-14T06:41:34Z</time>
      </trkpt>
      <trkpt lat="43.49339" lon="6.42671">
        <ele>181.35</ele>
        <time>2015-09-14T06:41:45Z</time>
      </trkpt>
      <trkpt lat="43.49336" lon="6.42667">
        <ele>180.87</ele>
        <time>2015-09-14T06:42:03Z</time>
      </trkpt>
      <trkpt lat="43.49332" lon="6.42661">
        <ele>180.87</ele>
        <time>2015-09-14T06:42:14Z</time>
      </trkpt>
      <trkpt lat="43.49329" lon="6.42654">
        <ele>181.35</ele>
        <time>2015-09-14T06:42:20Z</time>
      </trkpt>
      <trkpt lat="43.49318" lon="6.42641">
        <ele>181.35</ele>
        <time>2015-09-14T06:42:34Z</time>
      </trkpt>
      <trkpt lat="43.49309" lon="6.42636">
        <ele>180.87</ele>
        <time>2015-09-14T06:42:46Z</time>
      </trkpt>
      <trkpt lat="43.49303" lon="6.42624">
        <ele>180.87</ele>
        <time>2015-09-14T06:42:59Z</time>
      </trkpt>
      <trkpt lat="43.49301" lon="6.42617">
        <ele>180.87</ele>
        <time>2015-09-14T06:43:03Z</time>
      </trkpt>
      <trkpt lat="43.49294" lon="6.4261">
        <ele>180.87</ele>
        <time>2015-09-14T06:43:10Z</time>
      </trkpt>
      <trkpt lat="43.49283" lon="6.42601">
        <ele>180.87</ele>
        <time>2015-09-14T06:43:19Z</time>
      </trkpt>
      <trkpt lat="43.4928" lon="6.42599">
        <ele>181.35</ele>
        <time>2015-09-14T06:43:22Z</time>
      </trkpt>
      <trkpt lat="43.49269" lon="6.42578">
        <ele>182.31</ele>
        <time>2015-09-14T06:43:38Z</time>
      </trkpt>
      <trkpt lat="43.49263" lon="6.4257">
        <ele>182.31</ele>
        <time>2015-09-14T06:43:46Z</time>
      </trkpt>
      <trkpt lat="43.49256" lon="6.4256">
        <ele>182.79</ele>
        <time>2015-09-14T06:43:55Z</time>
      </trkpt>
      <trkpt lat="43.4924" lon="6.42543">
        <ele>182.79</ele>
        <time>2015-09-14T06:44:11Z</time>
      </trkpt>
      <trkpt lat="43.49226" lon="6.42528">
        <ele>182.31</ele>
        <time>2015-09-14T06:44:26Z</time>
      </trkpt>
      <trkpt lat="43.49212" lon="6.42509">
        <ele>181.83</ele>
        <time>2015-09-14T06:44:43Z</time>
      </trkpt>
      <trkpt lat="43.492" lon="6.42495">
        <ele>182.31</ele>
        <time>2015-09-14T06:44:57Z</time>
      </trkpt>
      <trkpt lat="43.49186" lon="6.42481">
        <ele>181.35</ele>
        <time>2015-09-14T06:45:13Z</time>
      </trkpt>
      <trkpt lat="43.49179" lon="6.42471">
        <ele>181.35</ele>
        <time>2015-09-14T06:45:24Z</time>
      </trkpt>
      <trkpt lat="43.49169" lon="6.42456">
        <ele>180.38</ele>
        <time>2015-09-14T06:45:38Z</time>
      </trkpt>
      <trkpt lat="43.49162" lon="6.42445">
        <ele>178.94</ele>
        <time>2015-09-14T06:45:52Z</time>
      </trkpt>
      <trkpt lat="43.49155" lon="6.42433">
        <ele>177.5</ele>
        <time>2015-09-14T06:46:06Z</time>
      </trkpt>
      <trkpt lat="43.49152" lon="6.42433">
        <ele>177.5</ele>
        <time>2015-09-14T06:46:09Z</time>
      </trkpt>
      <trkpt lat="43.49148" lon="6.4243">
        <ele>177.02</ele>
        <time>2015-09-14T06:46:13Z</time>
      </trkpt>
      <trkpt lat="43.49139" lon="6.42416">
        <ele>178.46</ele>
        <time>2015-09-14T06:46:30Z</time>
      </trkpt>
      <trkpt lat="43.49131" lon="6.42405">
        <ele>178.94</ele>
        <time>2015-09-14T06:46:43Z</time>
      </trkpt>
      <trkpt lat="43.49127" lon="6.42398">
        <ele>179.42</ele>
        <time>2015-09-14T06:46:50Z</time>
      </trkpt>
      <trkpt lat="43.49123" lon="6.42393">
        <ele>179.42</ele>
        <time>2015-09-14T06:46:56Z</time>
      </trkpt>
      <trkpt lat="43.49114" lon="6.4238">
        <ele>179.9</ele>
        <time>2015-09-14T06:47:09Z</time>
      </trkpt>
      <trkpt lat="43.49106" lon="6.4237">
        <ele>179.42</ele>
        <time>2015-09-14T06:47:18Z</time>
      </trkpt>
      <trkpt lat="43.49103" lon="6.42367">
        <ele>179.42</ele>
        <time>2015-09-14T06:47:21Z</time>
      </trkpt>
      <trkpt lat="43.49089" lon="6.42351">
        <ele>178.94</ele>
        <time>2015-09-14T06:47:38Z</time>
      </trkpt>
      <trkpt lat="43.4908" lon="6.42341">
        <ele>178.46</ele>
        <time>2015-09-14T06:47:52Z</time>
      </trkpt>
      <trkpt lat="43.49074" lon="6.42334">
        <ele>178.46</ele>
        <time>2015-09-14T06:48:00Z</time>
      </trkpt>
      <trkpt lat="43.49068" lon="6.42327">
        <ele>178.46</ele>
        <time>2015-09-14T06:48:08Z</time>
      </trkpt>
      <trkpt lat="43.49059" lon="6.42315">
        <ele>179.42</ele>
        <time>2015-09-14T06:48:21Z</time>
      </trkpt>
      <trkpt lat="43.4905" lon="6.42304">
        <ele>180.38</ele>
        <time>2015-09-14T06:48:34Z</time>
      </trkpt>
      <trkpt lat="43.49047" lon="6.42301">
        <ele>180.38</ele>
        <time>2015-09-14T06:48:38Z</time>
      </trkpt>
      <trkpt lat="43.49036" lon="6.42289">
        <ele>180.38</ele>
        <time>2015-09-14T06:48:51Z</time>
      </trkpt>
      <trkpt lat="43.4903" lon="6.42283">
        <ele>180.38</ele>
        <time>2015-09-14T06:48:57Z</time>
      </trkpt>
      <trkpt lat="43.49018" lon="6.4227">
        <ele>180.38</ele>
        <time>2015-09-14T06:49:11Z</time>
      </trkpt>
      <trkpt lat="43.49016" lon="6.42269">
        <ele>180.38</ele>
        <time>2015-09-14T06:49:32Z</time>
      </trkpt>
      <trkpt lat="43.49011" lon="6.42266">
        <ele>179.42</ele>
        <time>2015-09-14T06:49:45Z</time>
      </trkpt>
      <trkpt lat="43.49011" lon="6.42266">
        <ele>178.94</ele>
        <time>2015-09-14T06:50:00Z</time>
      </trkpt>
      <trkpt lat="43.4901" lon="6.42266">
        <ele>179.42</ele>
        <time>2015-09-14T06:50:21Z</time>
      </trkpt>
      <trkpt lat="43.4901" lon="6.42266">
        <ele>179.42</ele>
        <time>2015-09-14T06:50:46Z</time>
      </trkpt>
      <trkpt lat="43.49012" lon="6.42267">
        <ele>179.42</ele>
        <time>2015-09-14T06:51:05Z</time>
      </trkpt>
      <trkpt lat="43.49013" lon="6.42267">
        <ele>179.42</ele>
        <time>2015-09-14T06:51:18Z</time>
      </trkpt>
      <trkpt lat="43.49013" lon="6.42267">
        <ele>179.42</ele>
        <time>2015-09-14T06:51:25Z</time>
      </trkpt>
      <trkpt lat="43.4901" lon="6.42263">
        <ele>179.42</ele>
        <time>2015-09-14T06:51:28Z</time>
      </trkpt>
      <trkpt lat="43.49005" lon="6.42242">
        <ele>179.9</ele>
        <time>2015-09-14T06:51:44Z</time>
      </trkpt>
      <trkpt lat="43.49003" lon="6.42234">
        <ele>179.9</ele>
        <time>2015-09-14T06:51:50Z</time>
      </trkpt>
      <trkpt lat="43.48994" lon="6.42221">
        <ele>179.42</ele>
        <time>2015-09-14T06:52:02Z</time>
      </trkpt>
      <trkpt lat="43.48991" lon="6.42214">
        <ele>179.42</ele>
        <time>2015-09-14T06:52:08Z</time>
      </trkpt>
      <trkpt lat="43.48988" lon="6.42209">
        <ele>178.94</ele>
        <time>2015-09-14T06:52:12Z</time>
      </trkpt>
      <trkpt lat="43.48982" lon="6.42201">
        <ele>179.42</ele>
        <time>2015-09-14T06:52:19Z</time>
      </trkpt>
      <trkpt lat="43.48974" lon="6.4219">
        <ele>179.9</ele>
        <time>2015-09-14T06:52:29Z</time>
      </trkpt>
      <trkpt lat="43.48974" lon="6.42188">
        <ele>179.9</ele>
        <time>2015-09-14T06:52:31Z</time>
      </trkpt>
      <trkpt lat="43.48972" lon="6.42173">
        <ele>180.87</ele>
        <time>2015-09-14T06:52:42Z</time>
      </trkpt>
      <trkpt lat="43.48971" lon="6.42162">
        <ele>181.83</ele>
        <time>2015-09-14T06:52:50Z</time>
      </trkpt>
      <trkpt lat="43.48971" lon="6.42146">
        <ele>182.79</ele>
        <time>2015-09-14T06:53:02Z</time>
      </trkpt>
      <trkpt lat="43.48967" lon="6.42125">
        <ele>183.75</ele>
        <time>2015-09-14T06:53:18Z</time>
      </trkpt>
      <trkpt lat="43.48966" lon="6.42119">
        <ele>184.23</ele>
        <time>2015-09-14T06:53:24Z</time>
      </trkpt>
      <trkpt lat="43.48967" lon="6.42111">
        <ele>184.23</ele>
        <time>2015-09-14T06:53:29Z</time>
      </trkpt>
      <trkpt lat="43.48967" lon="6.42103">
        <ele>184.23</ele>
        <time>2015-09-14T06:53:35Z</time>
      </trkpt>
      <trkpt lat="43.48968" lon="6.42087">
        <ele>184.23</ele>
        <time>2015-09-14T06:53:46Z</time>
      </trkpt>
      <trkpt lat="43.4897" lon="6.42074">
        <ele>184.23</ele>
        <time>2015-09-14T06:53:56Z</time>
      </trkpt>
      <trkpt lat="43.4897" lon="6.4206">
        <ele>183.75</ele>
        <time>2015-09-14T06:54:06Z</time>
      </trkpt>
      <trkpt lat="43.48971" lon="6.42054">
        <ele>183.75</ele>
        <time>2015-09-14T06:54:10Z</time>
      </trkpt>
      <trkpt lat="43.48974" lon="6.42031">
        <ele>183.27</ele>
        <time>2015-09-14T06:54:25Z</time>
      </trkpt>
      <trkpt lat="43.48976" lon="6.42011">
        <ele>182.79</ele>
        <time>2015-09-14T06:54:38Z</time>
      </trkpt>
      <trkpt lat="43.48976" lon="6.42005">
        <ele>182.79</ele>
        <time>2015-09-14T06:54:41Z</time>
      </trkpt>
      <trkpt lat="43.48977" lon="6.4198">
        <ele>182.31</ele>
        <time>2015-09-14T06:54:55Z</time>
      </trkpt>
      <trkpt lat="43.48978" lon="6.41966">
        <ele>181.83</ele>
        <time>2015-09-14T06:55:04Z</time>
      </trkpt>
      <trkpt lat="43.48977" lon="6.41954">
        <ele>181.35</ele>
        <time>2015-09-14T06:55:13Z</time>
      </trkpt>
      <trkpt lat="43.48975" lon="6.41929">
        <ele>180.38</ele>
        <time>2015-09-14T06:55:29Z</time>
      </trkpt>
      <trkpt lat="43.48973" lon="6.41907">
        <ele>179.42</ele>
        <time>2015-09-14T06:55:44Z</time>
      </trkpt>
      <trkpt lat="43.48971" lon="6.41888">
        <ele>178.94</ele>
        <time>2015-09-14T06:55:59Z</time>
      </trkpt>
      <trkpt lat="43.48973" lon="6.41884">
        <ele>178.94</ele>
        <time>2015-09-14T06:56:11Z</time>
      </trkpt>
      <trkpt lat="43.48975" lon="6.41871">
        <ele>177.98</ele>
        <time>2015-09-14T06:56:26Z</time>
      </trkpt>
      <trkpt lat="43.48976" lon="6.41866">
        <ele>177.98</ele>
        <time>2015-09-14T06:56:30Z</time>
      </trkpt>
      <trkpt lat="43.48979" lon="6.41852">
        <ele>176.54</ele>
        <time>2015-09-14T06:56:43Z</time>
      </trkpt>
      <trkpt lat="43.48983" lon="6.41838">
        <ele>176.06</ele>
        <time>2015-09-14T06:56:56Z</time>
      </trkpt>
      <trkpt lat="43.48985" lon="6.41825">
        <ele>175.1</ele>
        <time>2015-09-14T06:57:05Z</time>
      </trkpt>
      <trkpt lat="43.48985" lon="6.41818">
        <ele>175.1</ele>
        <time>2015-09-14T06:57:10Z</time>
      </trkpt>
      <trkpt lat="43.48985" lon="6.41799">
        <ele>173.66</ele>
        <time>2015-09-14T06:57:24Z</time>
      </trkpt>
      <trkpt lat="43.48985" lon="6.41784">
        <ele>172.21</ele>
        <time>2015-09-14T06:57:34Z</time>
      </trkpt>
      <trkpt lat="43.48986" lon="6.41778">
        <ele>171.73</ele>
        <time>2015-09-14T06:57:38Z</time>
      </trkpt>
      <trkpt lat="43.48986" lon="6.41774">
        <ele>171.25</ele>
        <time>2015-09-14T06:57:42Z</time>
      </trkpt>
      <trkpt lat="43.48987" lon="6.41767">
        <ele>170.29</ele>
        <time>2015-09-14T06:57:47Z</time>
      </trkpt>
      <trkpt lat="43.48991" lon="6.41744">
        <ele>168.37</ele>
        <time>2015-09-14T06:58:03Z</time>
      </trkpt>
      <trkpt lat="43.48991" lon="6.41735">
        <ele>167.41</ele>
        <time>2015-09-14T06:58:09Z</time>
      </trkpt>
      <trkpt lat="43.4899" lon="6.41728">
        <ele>166.93</ele>
        <time>2015-09-14T06:58:13Z</time>
      </trkpt>
      <trkpt lat="43.48993" lon="6.41716">
        <ele>166.45</ele>
        <time>2015-09-14T06:58:22Z</time>
      </trkpt>
      <trkpt lat="43.48993" lon="6.41708">
        <ele>165.96</ele>
        <time>2015-09-14T06:58:28Z</time>
      </trkpt>
      <trkpt lat="43.48995" lon="6.41687">
        <ele>165.48</ele>
        <time>2015-09-14T06:58:41Z</time>
      </trkpt>
      <trkpt lat="43.48996" lon="6.41666">
        <ele>165</ele>
        <time>2015-09-14T06:58:55Z</time>
      </trkpt>
      <trkpt lat="43.48996" lon="6.41645">
        <ele>164.52</ele>
        <time>2015-09-14T06:59:08Z</time>
      </trkpt>
      <trkpt lat="43.48995" lon="6.41633">
        <ele>164.04</ele>
        <time>2015-09-14T06:59:18Z</time>
      </trkpt>
      <trkpt lat="43.48996" lon="6.41609">
        <ele>163.56</ele>
        <time>2015-09-14T06:59:33Z</time>
      </trkpt>
      <trkpt lat="43.48996" lon="6.41587">
        <ele>163.08</ele>
        <time>2015-09-14T06:59:47Z</time>
      </trkpt>
      <trkpt lat="43.48996" lon="6.41583">
        <ele>163.08</ele>
        <time>2015-09-14T06:59:49Z</time>
      </trkpt>
      <trkpt lat="43.48994" lon="6.41569">
        <ele>162.12</ele>
        <time>2015-09-14T06:59:57Z</time>
      </trkpt>
      <trkpt lat="43.48994" lon="6.41561">
        <ele>161.64</ele>
        <time>2015-09-14T07:00:03Z</time>
      </trkpt>
      <trkpt lat="43.48992" lon="6.41551">
        <ele>161.16</ele>
        <time>2015-09-14T07:00:16Z</time>
      </trkpt>
      <trkpt lat="43.4899" lon="6.4154">
        <ele>160.68</ele>
        <time>2015-09-14T07:00:34Z</time>
      </trkpt>
      <trkpt lat="43.48988" lon="6.41533">
        <ele>160.2</ele>
        <time>2015-09-14T07:00:45Z</time>
      </trkpt>
      <trkpt lat="43.48986" lon="6.41522">
        <ele>160.2</ele>
        <time>2015-09-14T07:00:56Z</time>
      </trkpt>
      <trkpt lat="43.48986" lon="6.41518">
        <ele>159.24</ele>
        <time>2015-09-14T07:00:59Z</time>
      </trkpt>
      <trkpt lat="43.48983" lon="6.41501">
        <ele>158.27</ele>
        <time>2015-09-14T07:01:10Z</time>
      </trkpt>
      <trkpt lat="43.4898" lon="6.41484">
        <ele>157.31</ele>
        <time>2015-09-14T07:01:21Z</time>
      </trkpt>
      <trkpt lat="43.48981" lon="6.41479">
        <ele>156.83</ele>
        <time>2015-09-14T07:01:24Z</time>
      </trkpt>
      <trkpt lat="43.48982" lon="6.41466">
        <ele>155.87</ele>
        <time>2015-09-14T07:01:33Z</time>
      </trkpt>
      <trkpt lat="43.48985" lon="6.41452">
        <ele>154.91</ele>
        <time>2015-09-14T07:01:41Z</time>
      </trkpt>
      <trkpt lat="43.48986" lon="6.41445">
        <ele>154.43</ele>
        <time>2015-09-14T07:01:46Z</time>
      </trkpt>
      <trkpt lat="43.48987" lon="6.41432">
        <ele>152.99</ele>
        <time>2015-09-14T07:01:59Z</time>
      </trkpt>
      <trkpt lat="43.48988" lon="6.41427">
        <ele>152.51</ele>
        <time>2015-09-14T07:02:03Z</time>
      </trkpt>
      <trkpt lat="43.48996" lon="6.41409">
        <ele>151.54</ele>
        <time>2015-09-14T07:02:17Z</time>
      </trkpt>
      <trkpt lat="43.49001" lon="6.41398">
        <ele>151.06</ele>
        <time>2015-09-14T07:02:25Z</time>
      </trkpt>
      <trkpt lat="43.49011" lon="6.41376">
        <ele>150.1</ele>
        <time>2015-09-14T07:02:40Z</time>
      </trkpt>
      <trkpt lat="43.49014" lon="6.41371">
        <ele>149.62</ele>
        <time>2015-09-14T07:02:43Z</time>
      </trkpt>
      <trkpt lat="43.49023" lon="6.41349">
        <ele>148.66</ele>
        <time>2015-09-14T07:02:58Z</time>
      </trkpt>
      <trkpt lat="43.49031" lon="6.41326">
        <ele>148.18</ele>
        <time>2015-09-14T07:03:13Z</time>
      </trkpt>
      <trkpt lat="43.4904" lon="6.41302">
        <ele>147.7</ele>
        <time>2015-09-14T07:03:28Z</time>
      </trkpt>
      <trkpt lat="43.49046" lon="6.41282">
        <ele>147.22</ele>
        <time>2015-09-14T07:03:41Z</time>
      </trkpt>
      <trkpt lat="43.49052" lon="6.41264">
        <ele>147.22</ele>
        <time>2015-09-14T07:03:52Z</time>
      </trkpt>
      <trkpt lat="43.49055" lon="6.41256">
        <ele>146.74</ele>
        <time>2015-09-14T07:03:57Z</time>
      </trkpt>
      <trkpt lat="43.49065" lon="6.41236">
        <ele>146.74</ele>
        <time>2015-09-14T07:04:11Z</time>
      </trkpt>
      <trkpt lat="43.49065" lon="6.41234">
        <ele>146.74</ele>
        <time>2015-09-14T07:04:22Z</time>
      </trkpt>
      <trkpt lat="43.49066" lon="6.4123">
        <ele>146.74</ele>
        <time>2015-09-14T07:04:25Z</time>
      </trkpt>
      <trkpt lat="43.49071" lon="6.41218">
        <ele>146.26</ele>
        <time>2015-09-14T07:04:32Z</time>
      </trkpt>
      <trkpt lat="43.49084" lon="6.41194">
        <ele>146.26</ele>
        <time>2015-09-14T07:04:48Z</time>
      </trkpt>
      <trkpt lat="43.49096" lon="6.4117">
        <ele>145.78</ele>
        <time>2015-09-14T07:05:04Z</time>
      </trkpt>
      <trkpt lat="43.49103" lon="6.41142">
        <ele>145.3</ele>
        <time>2015-09-14T07:05:20Z</time>
      </trkpt>
      <trkpt lat="43.49107" lon="6.4112">
        <ele>144.82</ele>
        <time>2015-09-14T07:05:32Z</time>
      </trkpt>
      <trkpt lat="43.49113" lon="6.41093">
        <ele>144.34</ele>
        <time>2015-09-14T07:05:47Z</time>
      </trkpt>
      <trkpt lat="43.49118" lon="6.41072">
        <ele>143.85</ele>
        <time>2015-09-14T07:05:59Z</time>
      </trkpt>
      <trkpt lat="43.49118" lon="6.4107">
        <ele>143.85</ele>
        <time>2015-09-14T07:06:00Z</time>
      </trkpt>
      <trkpt lat="43.49122" lon="6.41049">
        <ele>143.37</ele>
        <time>2015-09-14T07:06:12Z</time>
      </trkpt>
      <trkpt lat="43.49123" lon="6.41042">
        <ele>143.37</ele>
        <time>2015-09-14T07:06:16Z</time>
      </trkpt>
      <trkpt lat="43.4913" lon="6.4101">
        <ele>142.89</ele>
        <time>2015-09-14T07:06:34Z</time>
      </trkpt>
      <trkpt lat="43.49136" lon="6.40985">
        <ele>142.89</ele>
        <time>2015-09-14T07:06:47Z</time>
      </trkpt>
      <trkpt lat="43.49138" lon="6.40972">
        <ele>143.37</ele>
        <time>2015-09-14T07:07:01Z</time>
      </trkpt>
      <trkpt lat="43.49139" lon="6.40968">
        <ele>143.37</ele>
        <time>2015-09-14T07:07:10Z</time>
      </trkpt>
      <trkpt lat="43.4914" lon="6.40962">
        <ele>142.41</ele>
        <time>2015-09-14T07:07:25Z</time>
      </trkpt>
      <trkpt lat="43.49143" lon="6.40953">
        <ele>143.85</ele>
        <time>2015-09-14T07:07:32Z</time>
      </trkpt>
      <trkpt lat="43.49145" lon="6.40945">
        <ele>143.37</ele>
        <time>2015-09-14T07:07:37Z</time>
      </trkpt>
      <trkpt lat="43.49156" lon="6.40914">
        <ele>143.37</ele>
        <time>2015-09-14T07:07:57Z</time>
      </trkpt>
      <trkpt lat="43.49163" lon="6.40894">
        <ele>143.37</ele>
        <time>2015-09-14T07:08:09Z</time>
      </trkpt>
      <trkpt lat="43.49168" lon="6.40886">
        <ele>142.89</ele>
        <time>2015-09-14T07:08:16Z</time>
      </trkpt>
      <trkpt lat="43.49167" lon="6.40872">
        <ele>142.41</ele>
        <time>2015-09-14T07:08:27Z</time>
      </trkpt>
      <trkpt lat="43.4917" lon="6.40868">
        <ele>142.89</ele>
        <time>2015-09-14T07:08:31Z</time>
      </trkpt>
      <trkpt lat="43.49173" lon="6.40851">
        <ele>142.41</ele>
        <time>2015-09-14T07:08:44Z</time>
      </trkpt>
      <trkpt lat="43.49171" lon="6.40836">
        <ele>141.93</ele>
        <time>2015-09-14T07:08:58Z</time>
      </trkpt>
      <trkpt lat="43.49171" lon="6.40817">
        <ele>140.97</ele>
        <time>2015-09-14T07:09:09Z</time>
      </trkpt>
      <trkpt lat="43.49169" lon="6.40788">
        <ele>140.49</ele>
        <time>2015-09-14T07:09:25Z</time>
      </trkpt>
      <trkpt lat="43.49169" lon="6.40786">
        <ele>140.97</ele>
        <time>2015-09-14T07:09:26Z</time>
      </trkpt>
      <trkpt lat="43.49169" lon="6.40783">
        <ele>143.37</ele>
        <time>2015-09-14T07:09:28Z</time>
      </trkpt>
      <trkpt lat="43.49168" lon="6.40779">
        <ele>141.93</ele>
        <time>2015-09-14T07:09:30Z</time>
      </trkpt>
      <trkpt lat="43.49165" lon="6.40764">
        <ele>140.49</ele>
        <time>2015-09-14T07:09:39Z</time>
      </trkpt>
      <trkpt lat="43.49164" lon="6.40753">
        <ele>140.49</ele>
        <time>2015-09-14T07:09:45Z</time>
      </trkpt>
      <trkpt lat="43.49163" lon="6.40744">
        <ele>140.49</ele>
        <time>2015-09-14T07:09:50Z</time>
      </trkpt>
      <trkpt lat="43.49162" lon="6.40726">
        <ele>140.49</ele>
        <time>2015-09-14T07:10:00Z</time>
      </trkpt>
      <trkpt lat="43.49161" lon="6.40721">
        <ele>140.49</ele>
        <time>2015-09-14T07:10:03Z</time>
      </trkpt>
      <trkpt lat="43.49163" lon="6.40713">
        <ele>140.49</ele>
        <time>2015-09-14T07:10:09Z</time>
      </trkpt>
      <trkpt lat="43.49161" lon="6.40704">
        <ele>140.97</ele>
        <time>2015-09-14T07:10:15Z</time>
      </trkpt>
      <trkpt lat="43.49159" lon="6.40689">
        <ele>141.45</ele>
        <time>2015-09-14T07:10:24Z</time>
      </trkpt>
      <trkpt lat="43.49159" lon="6.40686">
        <ele>141.45</ele>
        <time>2015-09-14T07:10:26Z</time>
      </trkpt>
      <trkpt lat="43.49159" lon="6.40675">
        <ele>141.45</ele>
        <time>2015-09-14T07:10:32Z</time>
      </trkpt>
      <trkpt lat="43.49158" lon="6.40671">
        <ele>141.45</ele>
        <time>2015-09-14T07:10:34Z</time>
      </trkpt>
      <trkpt lat="43.49158" lon="6.40666">
        <ele>141.45</ele>
        <time>2015-09-14T07:10:38Z</time>
      </trkpt>
      <trkpt lat="43.49158" lon="6.40662">
        <ele>141.45</ele>
        <time>2015-09-14T07:10:40Z</time>
      </trkpt>
      <trkpt lat="43.49156" lon="6.40655">
        <ele>140.49</ele>
        <time>2015-09-14T07:10:45Z</time>
      </trkpt>
      <trkpt lat="43.49156" lon="6.40632">
        <ele>140.49</ele>
        <time>2015-09-14T07:10:58Z</time>
      </trkpt>
      <trkpt lat="43.49153" lon="6.40629">
        <ele>140.49</ele>
        <time>2015-09-14T07:11:03Z</time>
      </trkpt>
      <trkpt lat="43.49151" lon="6.4063">
        <ele>140.97</ele>
        <time>2015-09-14T07:11:18Z</time>
      </trkpt>
      <trkpt lat="43.49151" lon="6.40632">
        <ele>140.49</ele>
        <time>2015-09-14T07:11:36Z</time>
      </trkpt>
      <trkpt lat="43.49153" lon="6.40627">
        <ele>140.97</ele>
        <time>2015-09-14T07:11:46Z</time>
      </trkpt>
      <trkpt lat="43.49152" lon="6.40628">
        <ele>140.97</ele>
        <time>2015-09-14T07:11:50Z</time>
      </trkpt>
      <trkpt lat="43.49152" lon="6.40625">
        <ele>140.49</ele>
        <time>2015-09-14T07:11:52Z</time>
      </trkpt>
      <trkpt lat="43.49153" lon="6.40622">
        <ele>140.97</ele>
        <time>2015-09-14T07:11:54Z</time>
      </trkpt>
      <trkpt lat="43.49154" lon="6.40612">
        <ele>140.97</ele>
        <time>2015-09-14T07:12:04Z</time>
      </trkpt>
      <trkpt lat="43.49155" lon="6.40607">
        <ele>140.97</ele>
        <time>2015-09-14T07:12:07Z</time>
      </trkpt>
      <trkpt lat="43.49156" lon="6.40601">
        <ele>140.97</ele>
        <time>2015-09-14T07:12:11Z</time>
      </trkpt>
      <trkpt lat="43.49157" lon="6.40595">
        <ele>140.97</ele>
        <time>2015-09-14T07:12:15Z</time>
      </trkpt>
      <trkpt lat="43.49158" lon="6.40591">
        <ele>140.97</ele>
        <time>2015-09-14T07:12:17Z</time>
      </trkpt>
      <trkpt lat="43.49158" lon="6.40583">
        <ele>140.97</ele>
        <time>2015-09-14T07:12:28Z</time>
      </trkpt>
      <trkpt lat="43.49156" lon="6.40583">
        <ele>140.97</ele>
        <time>2015-09-14T07:12:52Z</time>
      </trkpt>
      <trkpt lat="43.49157" lon="6.40583">
        <ele>141.45</ele>
        <time>2015-09-14T07:13:10Z</time>
      </trkpt>
      <trkpt lat="43.49157" lon="6.40583">
        <ele>141.45</ele>
        <time>2015-09-14T07:13:31Z</time>
      </trkpt>
      <trkpt lat="43.49155" lon="6.40583">
        <ele>141.45</ele>
        <time>2015-09-14T07:13:33Z</time>
      </trkpt>
      <trkpt lat="43.49152" lon="6.40584">
        <ele>140.97</ele>
        <time>2015-09-14T07:13:36Z</time>
      </trkpt>
      <trkpt lat="43.4915" lon="6.40582">
        <ele>140.97</ele>
        <time>2015-09-14T07:13:45Z</time>
      </trkpt>
      <trkpt lat="43.49151" lon="6.40583">
        <ele>140.97</ele>
        <time>2015-09-14T07:13:47Z</time>
      </trkpt>
      <trkpt lat="43.49154" lon="6.40584">
        <ele>141.45</ele>
        <time>2015-09-14T07:13:57Z</time>
      </trkpt>
      <trkpt lat="43.49154" lon="6.40584">
        <ele>141.45</ele>
        <time>2015-09-14T07:14:07Z</time>
      </trkpt>
      <trkpt lat="43.49156" lon="6.40571">
        <ele>141.45</ele>
        <time>2015-09-14T07:14:14Z</time>
      </trkpt>
      <trkpt lat="43.49158" lon="6.4056">
        <ele>141.93</ele>
        <time>2015-09-14T07:14:21Z</time>
      </trkpt>
      <trkpt lat="43.49162" lon="6.40535">
        <ele>142.41</ele>
        <time>2015-09-14T07:14:36Z</time>
      </trkpt>
      <trkpt lat="43.49162" lon="6.40525">
        <ele>142.89</ele>
        <time>2015-09-14T07:14:42Z</time>
      </trkpt>
      <trkpt lat="43.49165" lon="6.40517">
        <ele>143.37</ele>
        <time>2015-09-14T07:14:48Z</time>
      </trkpt>
      <trkpt lat="43.49163" lon="6.405">
        <ele>144.34</ele>
        <time>2015-09-14T07:14:57Z</time>
      </trkpt>
      <trkpt lat="43.49162" lon="6.40497">
        <ele>144.34</ele>
        <time>2015-09-14T07:14:59Z</time>
      </trkpt>
      <trkpt lat="43.49161" lon="6.40476">
        <ele>145.3</ele>
        <time>2015-09-14T07:15:12Z</time>
      </trkpt>
      <trkpt lat="43.49161" lon="6.40464">
        <ele>145.78</ele>
        <time>2015-09-14T07:15:20Z</time>
      </trkpt>
      <trkpt lat="43.49167" lon="6.40439">
        <ele>147.22</ele>
        <time>2015-09-14T07:15:35Z</time>
      </trkpt>
      <trkpt lat="43.49167" lon="6.40436">
        <ele>147.22</ele>
        <time>2015-09-14T07:15:38Z</time>
      </trkpt>
      <trkpt lat="43.49169" lon="6.40427">
        <ele>147.22</ele>
        <time>2015-09-14T07:15:42Z</time>
      </trkpt>
      <trkpt lat="43.49171" lon="6.40415">
        <ele>147.7</ele>
        <time>2015-09-14T07:15:55Z</time>
      </trkpt>
      <trkpt lat="43.4917" lon="6.40414">
        <ele>147.7</ele>
        <time>2015-09-14T07:16:15Z</time>
      </trkpt>
      <trkpt lat="43.49171" lon="6.40414">
        <ele>147.7</ele>
        <time>2015-09-14T07:16:32Z</time>
      </trkpt>
      <trkpt lat="43.49173" lon="6.40412">
        <ele>147.7</ele>
        <time>2015-09-14T07:16:35Z</time>
      </trkpt>
      <trkpt lat="43.49174" lon="6.4041">
        <ele>147.7</ele>
        <time>2015-09-14T07:16:47Z</time>
      </trkpt>
      <trkpt lat="43.49175" lon="6.4041">
        <ele>147.7</ele>
        <time>2015-09-14T07:16:48Z</time>
      </trkpt>
      <trkpt lat="43.49178" lon="6.40405">
        <ele>147.7</ele>
        <time>2015-09-14T07:16:53Z</time>
      </trkpt>
      <trkpt lat="43.49189" lon="6.40392">
        <ele>147.7</ele>
        <time>2015-09-14T07:17:05Z</time>
      </trkpt>
      <trkpt lat="43.49193" lon="6.40388">
        <ele>148.66</ele>
        <time>2015-09-14T07:17:09Z</time>
      </trkpt>
      <trkpt lat="43.49204" lon="6.4037">
        <ele>147.22</ele>
        <time>2015-09-14T07:17:24Z</time>
      </trkpt>
      <trkpt lat="43.49205" lon="6.40369">
        <ele>147.22</ele>
        <time>2015-09-14T07:17:25Z</time>
      </trkpt>
      <trkpt lat="43.49209" lon="6.40366">
        <ele>147.22</ele>
        <time>2015-09-14T07:17:29Z</time>
      </trkpt>
      <trkpt lat="43.49219" lon="6.40351">
        <ele>147.22</ele>
        <time>2015-09-14T07:17:42Z</time>
      </trkpt>
      <trkpt lat="43.49227" lon="6.40344">
        <ele>147.22</ele>
        <time>2015-09-14T07:17:49Z</time>
      </trkpt>
      <trkpt lat="43.49244" lon="6.40328">
        <ele>147.7</ele>
        <time>2015-09-14T07:18:02Z</time>
      </trkpt>
      <trkpt lat="43.49243" lon="6.4032">
        <ele>147.7</ele>
        <time>2015-09-14T07:18:09Z</time>
      </trkpt>
      <trkpt lat="43.49246" lon="6.40315">
        <ele>148.18</ele>
        <time>2015-09-14T07:18:12Z</time>
      </trkpt>
      <trkpt lat="43.49256" lon="6.403">
        <ele>148.66</ele>
        <time>2015-09-14T07:18:23Z</time>
      </trkpt>
      <trkpt lat="43.49268" lon="6.40281">
        <ele>149.14</ele>
        <time>2015-09-14T07:18:38Z</time>
      </trkpt>
      <trkpt lat="43.49272" lon="6.40273">
        <ele>149.14</ele>
        <time>2015-09-14T07:18:43Z</time>
      </trkpt>
      <trkpt lat="43.49281" lon="6.40252">
        <ele>148.66</ele>
        <time>2015-09-14T07:18:57Z</time>
      </trkpt>
      <trkpt lat="43.49287" lon="6.40244">
        <ele>148.66</ele>
        <time>2015-09-14T07:19:03Z</time>
      </trkpt>
      <trkpt lat="43.49291" lon="6.40238">
        <ele>148.66</ele>
        <time>2015-09-14T07:19:07Z</time>
      </trkpt>
      <trkpt lat="43.49301" lon="6.40226">
        <ele>148.66</ele>
        <time>2015-09-14T07:19:16Z</time>
      </trkpt>
      <trkpt lat="43.49307" lon="6.4022">
        <ele>148.66</ele>
        <time>2015-09-14T07:19:22Z</time>
      </trkpt>
      <trkpt lat="43.49315" lon="6.40214">
        <ele>148.18</ele>
        <time>2015-09-14T07:19:28Z</time>
      </trkpt>
      <trkpt lat="43.49332" lon="6.40201">
        <ele>148.18</ele>
        <time>2015-09-14T07:19:43Z</time>
      </trkpt>
      <trkpt lat="43.49335" lon="6.40198">
        <ele>148.18</ele>
        <time>2015-09-14T07:19:46Z</time>
      </trkpt>
      <trkpt lat="43.49349" lon="6.40196">
        <ele>149.14</ele>
        <time>2015-09-14T07:20:01Z</time>
      </trkpt>
      <trkpt lat="43.49363" lon="6.402">
        <ele>149.62</ele>
        <time>2015-09-14T07:20:15Z</time>
      </trkpt>
      <trkpt lat="43.49381" lon="6.40195">
        <ele>151.54</ele>
        <time>2015-09-14T07:20:30Z</time>
      </trkpt>
      <trkpt lat="43.49387" lon="6.40188">
        <ele>152.03</ele>
        <time>2015-09-14T07:20:40Z</time>
      </trkpt>
      <trkpt lat="43.4939" lon="6.40183">
        <ele>152.03</ele>
        <time>2015-09-14T07:20:43Z</time>
      </trkpt>
      <trkpt lat="43.49394" lon="6.40164">
        <ele>151.54</ele>
        <time>2015-09-14T07:20:53Z</time>
      </trkpt>
      <trkpt lat="43.49396" lon="6.40157">
        <ele>151.54</ele>
        <time>2015-09-14T07:20:57Z</time>
      </trkpt>
      <trkpt lat="43.49399" lon="6.40153">
        <ele>151.54</ele>
        <time>2015-09-14T07:21:00Z</time>
      </trkpt>
      <trkpt lat="43.49401" lon="6.40142">
        <ele>151.06</ele>
        <time>2015-09-14T07:21:07Z</time>
      </trkpt>
      <trkpt lat="43.49404" lon="6.4013">
        <ele>150.58</ele>
        <time>2015-09-14T07:21:14Z</time>
      </trkpt>
      <trkpt lat="43.49407" lon="6.40124">
        <ele>150.58</ele>
        <time>2015-09-14T07:21:18Z</time>
      </trkpt>
      <trkpt lat="43.49408" lon="6.40121">
        <ele>150.58</ele>
        <time>2015-09-14T07:21:20Z</time>
      </trkpt>
      <trkpt lat="43.49419" lon="6.40111">
        <ele>150.1</ele>
        <time>2015-09-14T07:21:30Z</time>
      </trkpt>
      <trkpt lat="43.49423" lon="6.40116">
        <ele>152.03</ele>
        <time>2015-09-14T07:21:41Z</time>
      </trkpt>
      <trkpt lat="43.49424" lon="6.4012">
        <ele>152.51</ele>
        <time>2015-09-14T07:21:44Z</time>
      </trkpt>
      <trkpt lat="43.49434" lon="6.4013">
        <ele>154.91</ele>
        <time>2015-09-14T07:21:57Z</time>
      </trkpt>
      <trkpt lat="43.49439" lon="6.40148">
        <ele>156.83</ele>
        <time>2015-09-14T07:22:10Z</time>
      </trkpt>
      <trkpt lat="43.49445" lon="6.40166">
        <ele>157.79</ele>
        <time>2015-09-14T07:22:24Z</time>
      </trkpt>
      <trkpt lat="43.49454" lon="6.40188">
        <ele>159.24</ele>
        <time>2015-09-14T07:22:40Z</time>
      </trkpt>
      <trkpt lat="43.49463" lon="6.40207">
        <ele>160.68</ele>
        <time>2015-09-14T07:22:53Z</time>
      </trkpt>
      <trkpt lat="43.49476" lon="6.40223">
        <ele>163.08</ele>
        <time>2015-09-14T07:23:07Z</time>
      </trkpt>
      <trkpt lat="43.49491" lon="6.40225">
        <ele>165</ele>
        <time>2015-09-14T07:23:20Z</time>
      </trkpt>
      <trkpt lat="43.49493" lon="6.40225">
        <ele>165.48</ele>
        <time>2015-09-14T07:23:22Z</time>
      </trkpt>
      <trkpt lat="43.495" lon="6.40226">
        <ele>166.45</ele>
        <time>2015-09-14T07:23:28Z</time>
      </trkpt>
      <trkpt lat="43.49513" lon="6.40226">
        <ele>167.89</ele>
        <time>2015-09-14T07:23:40Z</time>
      </trkpt>
      <trkpt lat="43.4953" lon="6.40223">
        <ele>168.85</ele>
        <time>2015-09-14T07:23:56Z</time>
      </trkpt>
      <trkpt lat="43.49533" lon="6.40223">
        <ele>168.85</ele>
        <time>2015-09-14T07:23:58Z</time>
      </trkpt>
      <trkpt lat="43.4954" lon="6.40224">
        <ele>169.33</ele>
        <time>2015-09-14T07:24:04Z</time>
      </trkpt>
      <trkpt lat="43.49551" lon="6.40223">
        <ele>169.81</ele>
        <time>2015-09-14T07:24:17Z</time>
      </trkpt>
      <trkpt lat="43.49567" lon="6.40225">
        <ele>169.33</ele>
        <time>2015-09-14T07:24:28Z</time>
      </trkpt>
      <trkpt lat="43.49568" lon="6.40224">
        <ele>169.33</ele>
        <time>2015-09-14T07:24:29Z</time>
      </trkpt>
      <trkpt lat="43.49571" lon="6.40224">
        <ele>169.33</ele>
        <time>2015-09-14T07:24:31Z</time>
      </trkpt>
      <trkpt lat="43.49594" lon="6.40221">
        <ele>169.33</ele>
        <time>2015-09-14T07:24:47Z</time>
      </trkpt>
      <trkpt lat="43.49603" lon="6.40219">
        <ele>169.81</ele>
        <time>2015-09-14T07:24:55Z</time>
      </trkpt>
      <trkpt lat="43.49607" lon="6.40218">
        <ele>169.81</ele>
        <time>2015-09-14T07:24:57Z</time>
      </trkpt>
      <trkpt lat="43.49629" lon="6.40214">
        <ele>170.77</ele>
        <time>2015-09-14T07:25:13Z</time>
      </trkpt>
      <trkpt lat="43.49642" lon="6.40213">
        <ele>172.21</ele>
        <time>2015-09-14T07:25:24Z</time>
      </trkpt>
      <trkpt lat="43.49644" lon="6.40212">
        <ele>172.69</ele>
        <time>2015-09-14T07:25:26Z</time>
      </trkpt>
      <trkpt lat="43.49662" lon="6.40215">
        <ele>175.1</ele>
        <time>2015-09-14T07:25:41Z</time>
      </trkpt>
      <trkpt lat="43.4967" lon="6.40216">
        <ele>176.54</ele>
        <time>2015-09-14T07:25:48Z</time>
      </trkpt>
      <trkpt lat="43.49678" lon="6.40213">
        <ele>177.5</ele>
        <time>2015-09-14T07:26:02Z</time>
      </trkpt>
      <trkpt lat="43.4968" lon="6.40207">
        <ele>177.5</ele>
        <time>2015-09-14T07:26:18Z</time>
      </trkpt>
      <trkpt lat="43.49679" lon="6.40207">
        <ele>177.5</ele>
        <time>2015-09-14T07:26:43Z</time>
      </trkpt>
      <trkpt lat="43.49679" lon="6.40207">
        <ele>177.5</ele>
        <time>2015-09-14T07:27:01Z</time>
      </trkpt>
      <trkpt lat="43.49679" lon="6.40207">
        <ele>177.5</ele>
        <time>2015-09-14T07:27:19Z</time>
      </trkpt>
      <trkpt lat="43.4968" lon="6.40208">
        <ele>177.5</ele>
        <time>2015-09-14T07:27:29Z</time>
      </trkpt>
      <trkpt lat="43.49688" lon="6.40214">
        <ele>177.5</ele>
        <time>2015-09-14T07:27:36Z</time>
      </trkpt>
      <trkpt lat="43.49704" lon="6.40223">
        <ele>177.98</ele>
        <time>2015-09-14T07:27:50Z</time>
      </trkpt>
      <trkpt lat="43.49723" lon="6.40227">
        <ele>178.94</ele>
        <time>2015-09-14T07:28:05Z</time>
      </trkpt>
      <trkpt lat="43.4973" lon="6.4023">
        <ele>180.38</ele>
        <time>2015-09-14T07:28:14Z</time>
      </trkpt>
      <trkpt lat="43.49747" lon="6.40239">
        <ele>181.83</ele>
        <time>2015-09-14T07:28:28Z</time>
      </trkpt>
      <trkpt lat="43.49762" lon="6.40247">
        <ele>184.71</ele>
        <time>2015-09-14T07:28:42Z</time>
      </trkpt>
      <trkpt lat="43.4977" lon="6.40251">
        <ele>186.15</ele>
        <time>2015-09-14T07:28:49Z</time>
      </trkpt>
      <trkpt lat="43.49788" lon="6.40255">
        <ele>189.52</ele>
        <time>2015-09-14T07:29:03Z</time>
      </trkpt>
      <trkpt lat="43.49805" lon="6.40266">
        <ele>192.4</ele>
        <time>2015-09-14T07:29:20Z</time>
      </trkpt>
      <trkpt lat="43.49819" lon="6.40267">
        <ele>194.8</ele>
        <time>2015-09-14T07:29:35Z</time>
      </trkpt>
      <trkpt lat="43.4982" lon="6.40268">
        <ele>194.8</ele>
        <time>2015-09-14T07:30:00Z</time>
      </trkpt>
      <trkpt lat="43.49823" lon="6.40269">
        <ele>194.8</ele>
        <time>2015-09-14T07:30:03Z</time>
      </trkpt>
      <trkpt lat="43.49826" lon="6.40271">
        <ele>195.77</ele>
        <time>2015-09-14T07:30:07Z</time>
      </trkpt>
      <trkpt lat="43.49831" lon="6.40273">
        <ele>196.73</ele>
        <time>2015-09-14T07:30:14Z</time>
      </trkpt>
      <trkpt lat="43.49849" lon="6.40268">
        <ele>198.65</ele>
        <time>2015-09-14T07:30:29Z</time>
      </trkpt>
      <trkpt lat="43.49859" lon="6.40268">
        <ele>200.09</ele>
        <time>2015-09-14T07:30:38Z</time>
      </trkpt>
      <trkpt lat="43.49873" lon="6.40268">
        <ele>203.46</ele>
        <time>2015-09-14T07:30:49Z</time>
      </trkpt>
      <trkpt lat="43.49874" lon="6.40268">
        <ele>201.53</ele>
        <time>2015-09-14T07:30:50Z</time>
      </trkpt>
      <trkpt lat="43.49887" lon="6.40268">
        <ele>202.49</ele>
        <time>2015-09-14T07:31:02Z</time>
      </trkpt>
      <trkpt lat="43.49896" lon="6.40268">
        <ele>203.46</ele>
        <time>2015-09-14T07:31:10Z</time>
      </trkpt>
      <trkpt lat="43.49897" lon="6.40267">
        <ele>203.46</ele>
        <time>2015-09-14T07:31:12Z</time>
      </trkpt>
      <trkpt lat="43.49907" lon="6.40261">
        <ele>204.42</ele>
        <time>2015-09-14T07:31:22Z</time>
      </trkpt>
      <trkpt lat="43.49914" lon="6.40257">
        <ele>204.42</ele>
        <time>2015-09-14T07:31:28Z</time>
      </trkpt>
      <trkpt lat="43.49929" lon="6.40249">
        <ele>204.9</ele>
        <time>2015-09-14T07:31:40Z</time>
      </trkpt>
      <trkpt lat="43.49933" lon="6.40246">
        <ele>204.9</ele>
        <time>2015-09-14T07:31:43Z</time>
      </trkpt>
      <trkpt lat="43.49938" lon="6.40245">
        <ele>204.42</ele>
        <time>2015-09-14T07:31:47Z</time>
      </trkpt>
      <trkpt lat="43.49941" lon="6.40245">
        <ele>204.42</ele>
        <time>2015-09-14T07:31:50Z</time>
      </trkpt>
      <trkpt lat="43.49943" lon="6.40245">
        <ele>203.94</ele>
        <time>2015-09-14T07:31:52Z</time>
      </trkpt>
      <trkpt lat="43.49951" lon="6.40247">
        <ele>203.46</ele>
        <time>2015-09-14T07:31:59Z</time>
      </trkpt>
      <trkpt lat="43.49959" lon="6.40253">
        <ele>203.46</ele>
        <time>2015-09-14T07:32:09Z</time>
      </trkpt>
      <trkpt lat="43.49973" lon="6.40262">
        <ele>203.46</ele>
        <time>2015-09-14T07:32:22Z</time>
      </trkpt>
      <trkpt lat="43.49975" lon="6.40268">
        <ele>203.46</ele>
        <time>2015-09-14T07:32:31Z</time>
      </trkpt>
      <trkpt lat="43.49971" lon="6.40283">
        <ele>203.94</ele>
        <time>2015-09-14T07:32:41Z</time>
      </trkpt>
      <trkpt lat="43.49969" lon="6.40289">
        <ele>203.94</ele>
        <time>2015-09-14T07:32:44Z</time>
      </trkpt>
      <trkpt lat="43.49968" lon="6.40293">
        <ele>203.94</ele>
        <time>2015-09-14T07:32:51Z</time>
      </trkpt>
      <trkpt lat="43.49966" lon="6.40298">
        <ele>204.42</ele>
        <time>2015-09-14T07:32:54Z</time>
      </trkpt>
      <trkpt lat="43.49965" lon="6.40303">
        <ele>204.42</ele>
        <time>2015-09-14T07:32:57Z</time>
      </trkpt>
      <trkpt lat="43.49958" lon="6.40326">
        <ele>204.42</ele>
        <time>2015-09-14T07:33:12Z</time>
      </trkpt>
      <trkpt lat="43.49951" lon="6.40347">
        <ele>202.98</ele>
        <time>2015-09-14T07:33:25Z</time>
      </trkpt>
      <trkpt lat="43.49948" lon="6.4036">
        <ele>199.13</ele>
        <time>2015-09-14T07:33:34Z</time>
      </trkpt>
      <trkpt lat="43.49947" lon="6.40361">
        <ele>204.42</ele>
        <time>2015-09-14T07:33:35Z</time>
      </trkpt>
      <trkpt lat="43.49945" lon="6.40368">
        <ele>201.53</ele>
        <time>2015-09-14T07:33:39Z</time>
      </trkpt>
      <trkpt lat="43.49942" lon="6.40379">
        <ele>201.53</ele>
        <time>2015-09-14T07:33:54Z</time>
      </trkpt>
      <trkpt lat="43.49943" lon="6.40379">
        <ele>201.53</ele>
        <time>2015-09-14T07:34:13Z</time>
      </trkpt>
      <trkpt lat="43.49949" lon="6.40358">
        <ele>202.49</ele>
        <time>2015-09-14T07:34:26Z</time>
      </trkpt>
      <trkpt lat="43.49953" lon="6.40344">
        <ele>202.98</ele>
        <time>2015-09-14T07:34:34Z</time>
      </trkpt>
      <trkpt lat="43.49961" lon="6.40321">
        <ele>204.9</ele>
        <time>2015-09-14T07:34:49Z</time>
      </trkpt>
      <trkpt lat="43.49969" lon="6.40293">
        <ele>204.42</ele>
        <time>2015-09-14T07:35:05Z</time>
      </trkpt>
      <trkpt lat="43.49971" lon="6.40288">
        <ele>204.42</ele>
        <time>2015-09-14T07:35:09Z</time>
      </trkpt>
      <trkpt lat="43.49977" lon="6.40267">
        <ele>203.94</ele>
        <time>2015-09-14T07:35:23Z</time>
      </trkpt>
      <trkpt lat="43.49977" lon="6.40265">
        <ele>203.94</ele>
        <time>2015-09-14T07:35:38Z</time>
      </trkpt>
      <trkpt lat="43.49978" lon="6.40265">
        <ele>203.46</ele>
        <time>2015-09-14T07:35:53Z</time>
      </trkpt>
      <trkpt lat="43.49976" lon="6.40273">
        <ele>203.94</ele>
        <time>2015-09-14T07:36:05Z</time>
      </trkpt>
      <trkpt lat="43.49977" lon="6.40271">
        <ele>203.94</ele>
        <time>2015-09-14T07:36:17Z</time>
      </trkpt>
      <trkpt lat="43.4998" lon="6.40268">
        <ele>203.46</ele>
        <time>2015-09-14T07:36:28Z</time>
      </trkpt>
      <trkpt lat="43.49981" lon="6.40267">
        <ele>203.46</ele>
        <time>2015-09-14T07:36:45Z</time>
      </trkpt>
      <trkpt lat="43.49982" lon="6.40267">
        <ele>203.46</ele>
        <time>2015-09-14T07:36:58Z</time>
      </trkpt>
      <trkpt lat="43.49981" lon="6.40267">
        <ele>203.94</ele>
        <time>2015-09-14T07:37:15Z</time>
      </trkpt>
      <trkpt lat="43.49981" lon="6.40267">
        <ele>203.94</ele>
        <time>2015-09-14T07:37:34Z</time>
      </trkpt>
      <trkpt lat="43.4998" lon="6.40267">
        <ele>203.94</ele>
        <time>2015-09-14T07:37:48Z</time>
      </trkpt>
      <trkpt lat="43.49991" lon="6.40277">
        <ele>202.49</ele>
        <time>2015-09-14T07:38:04Z</time>
      </trkpt>
      <trkpt lat="43.5" lon="6.40279">
        <ele>201.53</ele>
        <time>2015-09-14T07:38:15Z</time>
      </trkpt>
      <trkpt lat="43.50007" lon="6.4028">
        <ele>201.05</ele>
        <time>2015-09-14T07:38:24Z</time>
      </trkpt>
      <trkpt lat="43.50031" lon="6.40284">
        <ele>199.61</ele>
        <time>2015-09-14T07:38:38Z</time>
      </trkpt>
      <trkpt lat="43.50048" lon="6.40289">
        <ele>198.17</ele>
        <time>2015-09-14T07:38:55Z</time>
      </trkpt>
      <trkpt lat="43.50052" lon="6.40288">
        <ele>197.69</ele>
        <time>2015-09-14T07:39:22Z</time>
      </trkpt>
      <trkpt lat="43.50069" lon="6.40287">
        <ele>195.28</ele>
        <time>2015-09-14T07:39:39Z</time>
      </trkpt>
      <trkpt lat="43.50088" lon="6.4029">
        <ele>192.88</ele>
        <time>2015-09-14T07:39:53Z</time>
      </trkpt>
      <trkpt lat="43.50112" lon="6.40291">
        <ele>190.48</ele>
        <time>2015-09-14T07:40:08Z</time>
      </trkpt>
      <trkpt lat="43.50129" lon="6.40283">
        <ele>188.56</ele>
        <time>2015-09-14T07:40:21Z</time>
      </trkpt>
      <trkpt lat="43.50146" lon="6.40284">
        <ele>186.63</ele>
        <time>2015-09-14T07:40:35Z</time>
      </trkpt>
      <trkpt lat="43.50159" lon="6.40284">
        <ele>185.19</ele>
        <time>2015-09-14T07:40:47Z</time>
      </trkpt>
      <trkpt lat="43.50177" lon="6.40288">
        <ele>185.19</ele>
        <time>2015-09-14T07:41:01Z</time>
      </trkpt>
      <trkpt lat="43.5018" lon="6.40285">
        <ele>185.19</ele>
        <time>2015-09-14T07:41:18Z</time>
      </trkpt>
      <trkpt lat="43.50179" lon="6.40285">
        <ele>185.19</ele>
        <time>2015-09-14T07:41:48Z</time>
      </trkpt>
      <trkpt lat="43.50186" lon="6.40285">
        <ele>183.75</ele>
        <time>2015-09-14T07:42:00Z</time>
      </trkpt>
      <trkpt lat="43.50193" lon="6.40283">
        <ele>183.27</ele>
        <time>2015-09-14T07:42:08Z</time>
      </trkpt>
      <trkpt lat="43.50201" lon="6.40274">
        <ele>182.31</ele>
        <time>2015-09-14T07:42:24Z</time>
      </trkpt>
      <trkpt lat="43.50204" lon="6.40273">
        <ele>181.35</ele>
        <time>2015-09-14T07:42:41Z</time>
      </trkpt>
      <trkpt lat="43.50208" lon="6.4027">
        <ele>179.9</ele>
        <time>2015-09-14T07:42:56Z</time>
      </trkpt>
      <trkpt lat="43.50212" lon="6.40267">
        <ele>177.98</ele>
        <time>2015-09-14T07:43:17Z</time>
      </trkpt>
      <trkpt lat="43.50216" lon="6.40265">
        <ele>175.58</ele>
        <time>2015-09-14T07:43:32Z</time>
      </trkpt>
      <trkpt lat="43.50227" lon="6.4026">
        <ele>173.17</ele>
        <time>2015-09-14T07:43:45Z</time>
      </trkpt>
      <trkpt lat="43.50238" lon="6.40253">
        <ele>170.29</ele>
        <time>2015-09-14T07:44:01Z</time>
      </trkpt>
      <trkpt lat="43.50244" lon="6.40247">
        <ele>169.33</ele>
        <time>2015-09-14T07:44:16Z</time>
      </trkpt>
      <trkpt lat="43.50244" lon="6.40246">
        <ele>168.85</ele>
        <time>2015-09-14T07:44:40Z</time>
      </trkpt>
      <trkpt lat="43.50244" lon="6.40245">
        <ele>168.85</ele>
        <time>2015-09-14T07:45:02Z</time>
      </trkpt>
      <trkpt lat="43.50244" lon="6.40243">
        <ele>168.85</ele>
        <time>2015-09-14T07:45:33Z</time>
      </trkpt>
      <trkpt lat="43.50244" lon="6.40243">
        <ele>168.85</ele>
        <time>2015-09-14T07:46:05Z</time>
      </trkpt>
      <trkpt lat="43.50243" lon="6.40243">
        <ele>168.85</ele>
        <time>2015-09-14T07:46:29Z</time>
      </trkpt>
      <trkpt lat="43.50243" lon="6.40243">
        <ele>168.85</ele>
        <time>2015-09-14T07:46:55Z</time>
      </trkpt>
      <trkpt lat="43.50243" lon="6.40242">
        <ele>168.85</ele>
        <time>2015-09-14T07:47:18Z</time>
      </trkpt>
      <trkpt lat="43.50243" lon="6.40242">
        <ele>168.85</ele>
        <time>2015-09-14T07:47:47Z</time>
      </trkpt>
      <trkpt lat="43.50242" lon="6.40242">
        <ele>168.85</ele>
        <time>2015-09-14T07:48:27Z</time>
      </trkpt>
      <trkpt lat="43.50242" lon="6.40242">
        <ele>168.85</ele>
        <time>2015-09-14T07:49:03Z</time>
      </trkpt>
      <trkpt lat="43.50242" lon="6.40242">
        <ele>168.85</ele>
        <time>2015-09-14T07:49:37Z</time>
      </trkpt>
      <trkpt lat="43.50241" lon="6.40241">
        <ele>168.85</ele>
        <time>2015-09-14T07:50:02Z</time>
      </trkpt>
      <trkpt lat="43.50242" lon="6.40242">
        <ele>168.85</ele>
        <time>2015-09-14T07:50:40Z</time>
      </trkpt>
      <trkpt lat="43.50242" lon="6.40242">
        <ele>168.85</ele>
        <time>2015-09-14T07:51:09Z</time>
      </trkpt>
      <trkpt lat="43.50245" lon="6.40238">
        <ele>167.41</ele>
        <time>2015-09-14T07:51:20Z</time>
      </trkpt>
      <trkpt lat="43.50254" lon="6.40228">
        <ele>164.52</ele>
        <time>2015-09-14T07:51:34Z</time>
      </trkpt>
      <trkpt lat="43.5026" lon="6.40217">
        <ele>162.6</ele>
        <time>2015-09-14T07:51:47Z</time>
      </trkpt>
      <trkpt lat="43.50265" lon="6.4021">
        <ele>159.72</ele>
        <time>2015-09-14T07:51:59Z</time>
      </trkpt>
      <trkpt lat="43.50273" lon="6.40206">
        <ele>158.27</ele>
        <time>2015-09-14T07:52:09Z</time>
      </trkpt>
      <trkpt lat="43.50276" lon="6.40207">
        <ele>157.79</ele>
        <time>2015-09-14T07:52:13Z</time>
      </trkpt>
      <trkpt lat="43.50285" lon="6.40212">
        <ele>155.87</ele>
        <time>2015-09-14T07:52:27Z</time>
      </trkpt>
      <trkpt lat="43.50293" lon="6.40217">
        <ele>153.95</ele>
        <time>2015-09-14T07:52:40Z</time>
      </trkpt>
      <trkpt lat="43.50296" lon="6.40213">
        <ele>153.47</ele>
        <time>2015-09-14T07:52:54Z</time>
      </trkpt>
      <trkpt lat="43.50299" lon="6.40213">
        <ele>153.47</ele>
        <time>2015-09-14T07:53:09Z</time>
      </trkpt>
      <trkpt lat="43.50301" lon="6.40212">
        <ele>152.99</ele>
        <time>2015-09-14T07:53:14Z</time>
      </trkpt>
      <trkpt lat="43.50306" lon="6.40215">
        <ele>152.99</ele>
        <time>2015-09-14T07:53:23Z</time>
      </trkpt>
      <trkpt lat="43.50307" lon="6.40215">
        <ele>152.99</ele>
        <time>2015-09-14T07:53:45Z</time>
      </trkpt>
      <trkpt lat="43.50307" lon="6.40208">
        <ele>152.03</ele>
        <time>2015-09-14T07:53:59Z</time>
      </trkpt>
      <trkpt lat="43.50307" lon="6.40207">
        <ele>151.54</ele>
        <time>2015-09-14T07:54:06Z</time>
      </trkpt>
      <trkpt lat="43.50309" lon="6.40206">
        <ele>151.54</ele>
        <time>2015-09-14T07:54:21Z</time>
      </trkpt>
      <trkpt lat="43.50306" lon="6.40205">
        <ele>151.54</ele>
        <time>2015-09-14T07:54:46Z</time>
      </trkpt>
      <trkpt lat="43.50307" lon="6.40206">
        <ele>151.06</ele>
        <time>2015-09-14T07:55:09Z</time>
      </trkpt>
      <trkpt lat="43.50309" lon="6.40203">
        <ele>151.06</ele>
        <time>2015-09-14T07:55:50Z</time>
      </trkpt>
      <trkpt lat="43.50308" lon="6.40203">
        <ele>151.06</ele>
        <time>2015-09-14T07:56:16Z</time>
      </trkpt>
      <trkpt lat="43.50309" lon="6.40213">
        <ele>152.51</ele>
        <time>2015-09-14T07:56:30Z</time>
      </trkpt>
      <trkpt lat="43.50305" lon="6.4023">
        <ele>153.95</ele>
        <time>2015-09-14T07:56:43Z</time>
      </trkpt>
      <trkpt lat="43.50303" lon="6.40241">
        <ele>154.91</ele>
        <time>2015-09-14T07:56:55Z</time>
      </trkpt>
      <trkpt lat="43.50303" lon="6.40242">
        <ele>154.91</ele>
        <time>2015-09-14T07:56:56Z</time>
      </trkpt>
      <trkpt lat="43.50302" lon="6.40247">
        <ele>155.39</ele>
        <time>2015-09-14T07:57:00Z</time>
      </trkpt>
      <trkpt lat="43.50303" lon="6.4025">
        <ele>155.39</ele>
        <time>2015-09-14T07:57:02Z</time>
      </trkpt>
      <trkpt lat="43.503" lon="6.40264">
        <ele>156.83</ele>
        <time>2015-09-14T07:57:14Z</time>
      </trkpt>
      <trkpt lat="43.50297" lon="6.4027">
        <ele>157.31</ele>
        <time>2015-09-14T07:57:20Z</time>
      </trkpt>
      <trkpt lat="43.50293" lon="6.40291">
        <ele>158.75</ele>
        <time>2015-09-14T07:57:34Z</time>
      </trkpt>
      <trkpt lat="43.50292" lon="6.40295">
        <ele>159.24</ele>
        <time>2015-09-14T07:57:37Z</time>
      </trkpt>
      <trkpt lat="43.50291" lon="6.40301">
        <ele>159.72</ele>
        <time>2015-09-14T07:57:40Z</time>
      </trkpt>
      <trkpt lat="43.50289" lon="6.40322">
        <ele>161.64</ele>
        <time>2015-09-14T07:57:54Z</time>
      </trkpt>
      <trkpt lat="43.50298" lon="6.4035">
        <ele>163.08</ele>
        <time>2015-09-14T07:58:09Z</time>
      </trkpt>
      <trkpt lat="43.50303" lon="6.40367">
        <ele>164.52</ele>
        <time>2015-09-14T07:58:20Z</time>
      </trkpt>
      <trkpt lat="43.50302" lon="6.40383">
        <ele>166.45</ele>
        <time>2015-09-14T07:58:33Z</time>
      </trkpt>
      <trkpt lat="43.50293" lon="6.40393">
        <ele>167.89</ele>
        <time>2015-09-14T07:58:43Z</time>
      </trkpt>
      <trkpt lat="43.50294" lon="6.40398">
        <ele>168.37</ele>
        <time>2015-09-14T07:58:48Z</time>
      </trkpt>
      <trkpt lat="43.503" lon="6.40419">
        <ele>170.29</ele>
        <time>2015-09-14T07:59:00Z</time>
      </trkpt>
      <trkpt lat="43.50302" lon="6.40424">
        <ele>170.29</ele>
        <time>2015-09-14T07:59:03Z</time>
      </trkpt>
      <trkpt lat="43.50306" lon="6.40434">
        <ele>171.25</ele>
        <time>2015-09-14T07:59:09Z</time>
      </trkpt>
      <trkpt lat="43.50308" lon="6.40457">
        <ele>172.21</ele>
        <time>2015-09-14T07:59:24Z</time>
      </trkpt>
      <trkpt lat="43.5031" lon="6.40464">
        <ele>172.69</ele>
        <time>2015-09-14T07:59:29Z</time>
      </trkpt>
      <trkpt lat="43.50322" lon="6.40476">
        <ele>173.17</ele>
        <time>2015-09-14T07:59:38Z</time>
      </trkpt>
      <trkpt lat="43.50326" lon="6.40486">
        <ele>173.17</ele>
        <time>2015-09-14T07:59:45Z</time>
      </trkpt>
      <trkpt lat="43.50325" lon="6.40504">
        <ele>172.69</ele>
        <time>2015-09-14T07:59:58Z</time>
      </trkpt>
      <trkpt lat="43.50325" lon="6.40515">
        <ele>172.21</ele>
        <time>2015-09-14T08:00:07Z</time>
      </trkpt>
      <trkpt lat="43.50322" lon="6.40527">
        <ele>172.21</ele>
        <time>2015-09-14T08:00:14Z</time>
      </trkpt>
      <trkpt lat="43.50318" lon="6.40537">
        <ele>172.21</ele>
        <time>2015-09-14T08:00:21Z</time>
      </trkpt>
      <trkpt lat="43.50317" lon="6.40549">
        <ele>170.77</ele>
        <time>2015-09-14T08:00:28Z</time>
      </trkpt>
      <trkpt lat="43.50318" lon="6.40558">
        <ele>170.77</ele>
        <time>2015-09-14T08:00:34Z</time>
      </trkpt>
      <trkpt lat="43.50325" lon="6.40563">
        <ele>171.25</ele>
        <time>2015-09-14T08:00:37Z</time>
      </trkpt>
      <trkpt lat="43.50339" lon="6.40572">
        <ele>171.25</ele>
        <time>2015-09-14T08:00:47Z</time>
      </trkpt>
      <trkpt lat="43.50349" lon="6.40574">
        <ele>171.73</ele>
        <time>2015-09-14T08:00:55Z</time>
      </trkpt>
      <trkpt lat="43.50354" lon="6.40574">
        <ele>172.69</ele>
        <time>2015-09-14T08:00:59Z</time>
      </trkpt>
      <trkpt lat="43.50359" lon="6.40573">
        <ele>171.73</ele>
        <time>2015-09-14T08:01:03Z</time>
      </trkpt>
      <trkpt lat="43.50378" lon="6.40573">
        <ele>172.21</ele>
        <time>2015-09-14T08:01:18Z</time>
      </trkpt>
      <trkpt lat="43.50396" lon="6.40578">
        <ele>173.17</ele>
        <time>2015-09-14T08:01:33Z</time>
      </trkpt>
      <trkpt lat="43.50414" lon="6.40585">
        <ele>174.14</ele>
        <time>2015-09-14T08:01:49Z</time>
      </trkpt>
      <trkpt lat="43.50434" lon="6.40597">
        <ele>174.62</ele>
        <time>2015-09-14T08:02:04Z</time>
      </trkpt>
      <trkpt lat="43.50449" lon="6.40609">
        <ele>176.06</ele>
        <time>2015-09-14T08:02:17Z</time>
      </trkpt>
      <trkpt lat="43.50458" lon="6.40619">
        <ele>177.02</ele>
        <time>2015-09-14T08:02:28Z</time>
      </trkpt>
      <trkpt lat="43.50464" lon="6.40637">
        <ele>178.46</ele>
        <time>2015-09-14T08:02:41Z</time>
      </trkpt>
      <trkpt lat="43.50469" lon="6.40658">
        <ele>179.9</ele>
        <time>2015-09-14T08:02:53Z</time>
      </trkpt>
      <trkpt lat="43.5047" lon="6.40661">
        <ele>179.9</ele>
        <time>2015-09-14T08:02:55Z</time>
      </trkpt>
      <trkpt lat="43.50476" lon="6.4067">
        <ele>179.9</ele>
        <time>2015-09-14T08:03:02Z</time>
      </trkpt>
      <trkpt lat="43.50478" lon="6.40674">
        <ele>179.9</ele>
        <time>2015-09-14T08:03:05Z</time>
      </trkpt>
      <trkpt lat="43.50483" lon="6.40683">
        <ele>180.38</ele>
        <time>2015-09-14T08:03:12Z</time>
      </trkpt>
      <trkpt lat="43.50489" lon="6.40693">
        <ele>179.9</ele>
        <time>2015-09-14T08:03:21Z</time>
      </trkpt>
      <trkpt lat="43.50506" lon="6.40715">
        <ele>180.38</ele>
        <time>2015-09-14T08:03:36Z</time>
      </trkpt>
      <trkpt lat="43.50522" lon="6.40732">
        <ele>180.87</ele>
        <time>2015-09-14T08:03:50Z</time>
      </trkpt>
      <trkpt lat="43.50528" lon="6.40738">
        <ele>181.35</ele>
        <time>2015-09-14T08:03:56Z</time>
      </trkpt>
      <trkpt lat="43.50544" lon="6.4075">
        <ele>182.31</ele>
        <time>2015-09-14T08:04:10Z</time>
      </trkpt>
      <trkpt lat="43.50552" lon="6.40763">
        <ele>182.31</ele>
        <time>2015-09-14T08:04:21Z</time>
      </trkpt>
      <trkpt lat="43.50554" lon="6.40767">
        <ele>182.31</ele>
        <time>2015-09-14T08:04:24Z</time>
      </trkpt>
      <trkpt lat="43.50561" lon="6.4079">
        <ele>181.83</ele>
        <time>2015-09-14T08:04:38Z</time>
      </trkpt>
      <trkpt lat="43.50563" lon="6.40811">
        <ele>181.83</ele>
        <time>2015-09-14T08:04:50Z</time>
      </trkpt>
      <trkpt lat="43.50568" lon="6.40829">
        <ele>182.31</ele>
        <time>2015-09-14T08:05:04Z</time>
      </trkpt>
      <trkpt lat="43.50569" lon="6.40831">
        <ele>182.31</ele>
        <time>2015-09-14T08:05:05Z</time>
      </trkpt>
      <trkpt lat="43.50571" lon="6.40851">
        <ele>183.27</ele>
        <time>2015-09-14T08:05:21Z</time>
      </trkpt>
      <trkpt lat="43.50576" lon="6.40869">
        <ele>184.23</ele>
        <time>2015-09-14T08:05:34Z</time>
      </trkpt>
      <trkpt lat="43.50581" lon="6.40889">
        <ele>185.19</ele>
        <time>2015-09-14T08:05:47Z</time>
      </trkpt>
      <trkpt lat="43.50578" lon="6.40895">
        <ele>185.67</ele>
        <time>2015-09-14T08:05:52Z</time>
      </trkpt>
      <trkpt lat="43.50577" lon="6.40898">
        <ele>185.67</ele>
        <time>2015-09-14T08:05:54Z</time>
      </trkpt>
      <trkpt lat="43.50576" lon="6.40909">
        <ele>186.15</ele>
        <time>2015-09-14T08:06:01Z</time>
      </trkpt>
      <trkpt lat="43.5057" lon="6.40928">
        <ele>187.11</ele>
        <time>2015-09-14T08:06:15Z</time>
      </trkpt>
      <trkpt lat="43.50569" lon="6.40953">
        <ele>187.11</ele>
        <time>2015-09-14T08:06:32Z</time>
      </trkpt>
      <trkpt lat="43.50568" lon="6.40957">
        <ele>187.11</ele>
        <time>2015-09-14T08:06:34Z</time>
      </trkpt>
      <trkpt lat="43.5057" lon="6.40967">
        <ele>186.63</ele>
        <time>2015-09-14T08:06:39Z</time>
      </trkpt>
      <trkpt lat="43.50574" lon="6.40983">
        <ele>187.11</ele>
        <time>2015-09-14T08:06:49Z</time>
      </trkpt>
      <trkpt lat="43.50573" lon="6.40986">
        <ele>187.11</ele>
        <time>2015-09-14T08:06:51Z</time>
      </trkpt>
      <trkpt lat="43.50574" lon="6.40993">
        <ele>187.11</ele>
        <time>2015-09-14T08:06:55Z</time>
      </trkpt>
      <trkpt lat="43.50572" lon="6.40998">
        <ele>187.59</ele>
        <time>2015-09-14T08:06:58Z</time>
      </trkpt>
      <trkpt lat="43.5057" lon="6.41003">
        <ele>187.59</ele>
        <time>2015-09-14T08:07:02Z</time>
      </trkpt>
      <trkpt lat="43.50566" lon="6.41011">
        <ele>188.08</ele>
        <time>2015-09-14T08:07:09Z</time>
      </trkpt>
      <trkpt lat="43.50563" lon="6.41014">
        <ele>188.08</ele>
        <time>2015-09-14T08:07:22Z</time>
      </trkpt>
      <trkpt lat="43.50569" lon="6.41015">
        <ele>188.56</ele>
        <time>2015-09-14T08:07:36Z</time>
      </trkpt>
      <trkpt lat="43.50569" lon="6.41015">
        <ele>188.08</ele>
        <time>2015-09-14T08:07:40Z</time>
      </trkpt>
      <trkpt lat="43.50565" lon="6.41022">
        <ele>189.04</ele>
        <time>2015-09-14T08:07:48Z</time>
      </trkpt>
      <trkpt lat="43.50561" lon="6.41035">
        <ele>190</ele>
        <time>2015-09-14T08:08:00Z</time>
      </trkpt>
      <trkpt lat="43.50558" lon="6.41042">
        <ele>190.48</ele>
        <time>2015-09-14T08:08:06Z</time>
      </trkpt>
      <trkpt lat="43.50559" lon="6.41062">
        <ele>190.96</ele>
        <time>2015-09-14T08:08:18Z</time>
      </trkpt>
      <trkpt lat="43.50558" lon="6.41075">
        <ele>191.44</ele>
        <time>2015-09-14T08:08:25Z</time>
      </trkpt>
      <trkpt lat="43.5056" lon="6.41085">
        <ele>191.92</ele>
        <time>2015-09-14T08:08:31Z</time>
      </trkpt>
      <trkpt lat="43.50556" lon="6.41104">
        <ele>192.88</ele>
        <time>2015-09-14T08:08:45Z</time>
      </trkpt>
      <trkpt lat="43.50555" lon="6.41108">
        <ele>192.88</ele>
        <time>2015-09-14T08:08:48Z</time>
      </trkpt>
      <trkpt lat="43.5055" lon="6.41125">
        <ele>193.36</ele>
        <time>2015-09-14T08:09:03Z</time>
      </trkpt>
      <trkpt lat="43.50545" lon="6.41143">
        <ele>194.8</ele>
        <time>2015-09-14T08:09:16Z</time>
      </trkpt>
      <trkpt lat="43.50541" lon="6.4116">
        <ele>195.28</ele>
        <time>2015-09-14T08:09:30Z</time>
      </trkpt>
      <trkpt lat="43.50538" lon="6.41165">
        <ele>195.28</ele>
        <time>2015-09-14T08:09:35Z</time>
      </trkpt>
      <trkpt lat="43.50534" lon="6.41172">
        <ele>195.77</ele>
        <time>2015-09-14T08:09:39Z</time>
      </trkpt>
      <trkpt lat="43.50533" lon="6.41183">
        <ele>196.73</ele>
        <time>2015-09-14T08:09:53Z</time>
      </trkpt>
      <trkpt lat="43.50531" lon="6.41199">
        <ele>197.69</ele>
        <time>2015-09-14T08:10:03Z</time>
      </trkpt>
      <trkpt lat="43.50526" lon="6.41207">
        <ele>197.69</ele>
        <time>2015-09-14T08:10:12Z</time>
      </trkpt>
      <trkpt lat="43.50524" lon="6.41213">
        <ele>198.65</ele>
        <time>2015-09-14T08:10:19Z</time>
      </trkpt>
      <trkpt lat="43.50512" lon="6.41222">
        <ele>200.09</ele>
        <time>2015-09-14T08:10:32Z</time>
      </trkpt>
      <trkpt lat="43.50511" lon="6.41225">
        <ele>200.57</ele>
        <time>2015-09-14T08:10:35Z</time>
      </trkpt>
      <trkpt lat="43.50505" lon="6.41238">
        <ele>202.01</ele>
        <time>2015-09-14T08:10:46Z</time>
      </trkpt>
      <trkpt lat="43.50496" lon="6.41246">
        <ele>202.98</ele>
        <time>2015-09-14T08:10:57Z</time>
      </trkpt>
      <trkpt lat="43.50492" lon="6.41253">
        <ele>204.42</ele>
        <time>2015-09-14T08:11:06Z</time>
      </trkpt>
      <trkpt lat="43.50491" lon="6.41261">
        <ele>204.9</ele>
        <time>2015-09-14T08:11:12Z</time>
      </trkpt>
      <trkpt lat="43.50489" lon="6.41277">
        <ele>205.86</ele>
        <time>2015-09-14T08:11:21Z</time>
      </trkpt>
      <trkpt lat="43.50487" lon="6.41305">
        <ele>207.78</ele>
        <time>2015-09-14T08:11:36Z</time>
      </trkpt>
      <trkpt lat="43.50485" lon="6.41314">
        <ele>208.74</ele>
        <time>2015-09-14T08:11:43Z</time>
      </trkpt>
      <trkpt lat="43.50485" lon="6.41318">
        <ele>209.22</ele>
        <time>2015-09-14T08:11:45Z</time>
      </trkpt>
      <trkpt lat="43.50482" lon="6.41331">
        <ele>210.19</ele>
        <time>2015-09-14T08:11:58Z</time>
      </trkpt>
      <trkpt lat="43.50479" lon="6.41333">
        <ele>210.67</ele>
        <time>2015-09-14T08:12:12Z</time>
      </trkpt>
      <trkpt lat="43.50478" lon="6.41337">
        <ele>211.63</ele>
        <time>2015-09-14T08:12:17Z</time>
      </trkpt>
      <trkpt lat="43.50475" lon="6.41347">
        <ele>212.59</ele>
        <time>2015-09-14T08:12:25Z</time>
      </trkpt>
      <trkpt lat="43.50467" lon="6.41356">
        <ele>214.03</ele>
        <time>2015-09-14T08:12:38Z</time>
      </trkpt>
      <trkpt lat="43.50466" lon="6.41358">
        <ele>214.51</ele>
        <time>2015-09-14T08:12:56Z</time>
      </trkpt>
      <trkpt lat="43.50466" lon="6.4136">
        <ele>215.47</ele>
        <time>2015-09-14T08:13:00Z</time>
      </trkpt>
      <trkpt lat="43.50467" lon="6.41373">
        <ele>215.47</ele>
        <time>2015-09-14T08:13:13Z</time>
      </trkpt>
      <trkpt lat="43.50466" lon="6.41383">
        <ele>216.43</ele>
        <time>2015-09-14T08:13:25Z</time>
      </trkpt>
      <trkpt lat="43.5046" lon="6.41393">
        <ele>217.4</ele>
        <time>2015-09-14T08:13:37Z</time>
      </trkpt>
      <trkpt lat="43.50456" lon="6.41403">
        <ele>219.32</ele>
        <time>2015-09-14T08:13:46Z</time>
      </trkpt>
      <trkpt lat="43.50455" lon="6.41404">
        <ele>219.8</ele>
        <time>2015-09-14T08:13:47Z</time>
      </trkpt>
      <trkpt lat="43.50447" lon="6.4142">
        <ele>219.32</ele>
        <time>2015-09-14T08:13:59Z</time>
      </trkpt>
      <trkpt lat="43.50444" lon="6.41426">
        <ele>215.95</ele>
        <time>2015-09-14T08:14:04Z</time>
      </trkpt>
      <trkpt lat="43.50443" lon="6.41427">
        <ele>222.68</ele>
        <time>2015-09-14T08:14:05Z</time>
      </trkpt>
      <trkpt lat="43.50436" lon="6.4144">
        <ele>221.24</ele>
        <time>2015-09-14T08:14:15Z</time>
      </trkpt>
      <trkpt lat="43.50434" lon="6.41445">
        <ele>221.72</ele>
        <time>2015-09-14T08:14:20Z</time>
      </trkpt>
      <trkpt lat="43.50429" lon="6.41451">
        <ele>222.2</ele>
        <time>2015-09-14T08:14:24Z</time>
      </trkpt>
      <trkpt lat="43.50421" lon="6.41463">
        <ele>223.64</ele>
        <time>2015-09-14T08:14:37Z</time>
      </trkpt>
      <trkpt lat="43.50408" lon="6.41475">
        <ele>225.09</ele>
        <time>2015-09-14T08:14:51Z</time>
      </trkpt>
      <trkpt lat="43.50407" lon="6.41476">
        <ele>225.57</ele>
        <time>2015-09-14T08:14:52Z</time>
      </trkpt>
      <trkpt lat="43.504" lon="6.41504">
        <ele>227.49</ele>
        <time>2015-09-14T08:15:09Z</time>
      </trkpt>
      <trkpt lat="43.50395" lon="6.41525">
        <ele>228.45</ele>
        <time>2015-09-14T08:15:22Z</time>
      </trkpt>
      <trkpt lat="43.50392" lon="6.41536">
        <ele>228.93</ele>
        <time>2015-09-14T08:15:29Z</time>
      </trkpt>
      <trkpt lat="43.50391" lon="6.41541">
        <ele>229.41</ele>
        <time>2015-09-14T08:15:32Z</time>
      </trkpt>
      <trkpt lat="43.50389" lon="6.41549">
        <ele>229.41</ele>
        <time>2015-09-14T08:15:38Z</time>
      </trkpt>
      <trkpt lat="43.50384" lon="6.41568">
        <ele>230.37</ele>
        <time>2015-09-14T08:15:50Z</time>
      </trkpt>
      <trkpt lat="43.50381" lon="6.41578">
        <ele>230.85</ele>
        <time>2015-09-14T08:15:57Z</time>
      </trkpt>
      <trkpt lat="43.50381" lon="6.41583">
        <ele>230.37</ele>
        <time>2015-09-14T08:16:00Z</time>
      </trkpt>
      <trkpt lat="43.5038" lon="6.41586">
        <ele>231.33</ele>
        <time>2015-09-14T08:16:02Z</time>
      </trkpt>
      <trkpt lat="43.50379" lon="6.41596">
        <ele>231.81</ele>
        <time>2015-09-14T08:16:09Z</time>
      </trkpt>
      <trkpt lat="43.50376" lon="6.41607">
        <ele>232.3</ele>
        <time>2015-09-14T08:16:17Z</time>
      </trkpt>
      <trkpt lat="43.50376" lon="6.4161">
        <ele>232.3</ele>
        <time>2015-09-14T08:16:19Z</time>
      </trkpt>
      <trkpt lat="43.50375" lon="6.41617">
        <ele>232.78</ele>
        <time>2015-09-14T08:16:23Z</time>
      </trkpt>
      <trkpt lat="43.50372" lon="6.41636">
        <ele>233.74</ele>
        <time>2015-09-14T08:16:35Z</time>
      </trkpt>
      <trkpt lat="43.5037" lon="6.41645">
        <ele>234.7</ele>
        <time>2015-09-14T08:16:41Z</time>
      </trkpt>
      <trkpt lat="43.50367" lon="6.41668">
        <ele>236.14</ele>
        <time>2015-09-14T08:16:57Z</time>
      </trkpt>
      <trkpt lat="43.50368" lon="6.41684">
        <ele>237.58</ele>
        <time>2015-09-14T08:17:08Z</time>
      </trkpt>
      <trkpt lat="43.50377" lon="6.41698">
        <ele>239.51</ele>
        <time>2015-09-14T08:17:23Z</time>
      </trkpt>
      <trkpt lat="43.50379" lon="6.41701">
        <ele>240.47</ele>
        <time>2015-09-14T08:17:29Z</time>
      </trkpt>
      <trkpt lat="43.50381" lon="6.41702">
        <ele>236.62</ele>
        <time>2015-09-14T08:17:32Z</time>
      </trkpt>
      <trkpt lat="43.50382" lon="6.41703">
        <ele>240.47</ele>
        <time>2015-09-14T08:17:33Z</time>
      </trkpt>
      <trkpt lat="43.5039" lon="6.41708">
        <ele>240.95</ele>
        <time>2015-09-14T08:17:43Z</time>
      </trkpt>
      <trkpt lat="43.50404" lon="6.41724">
        <ele>242.87</ele>
        <time>2015-09-14T08:17:59Z</time>
      </trkpt>
      <trkpt lat="43.50417" lon="6.41734">
        <ele>244.31</ele>
        <time>2015-09-14T08:18:12Z</time>
      </trkpt>
      <trkpt lat="43.50433" lon="6.4175">
        <ele>246.23</ele>
        <time>2015-09-14T08:18:30Z</time>
      </trkpt>
      <trkpt lat="43.50447" lon="6.41758">
        <ele>247.2</ele>
        <time>2015-09-14T08:18:42Z</time>
      </trkpt>
      <trkpt lat="43.50455" lon="6.41769">
        <ele>247.68</ele>
        <time>2015-09-14T08:18:55Z</time>
      </trkpt>
      <trkpt lat="43.50454" lon="6.41772">
        <ele>248.16</ele>
        <time>2015-09-14T08:19:03Z</time>
      </trkpt>
      <trkpt lat="43.50445" lon="6.41781">
        <ele>248.64</ele>
        <time>2015-09-14T08:19:14Z</time>
      </trkpt>
      <trkpt lat="43.50442" lon="6.41785">
        <ele>248.16</ele>
        <time>2015-09-14T08:19:20Z</time>
      </trkpt>
      <trkpt lat="43.50441" lon="6.41789">
        <ele>248.16</ele>
        <time>2015-09-14T08:19:23Z</time>
      </trkpt>
      <trkpt lat="43.50437" lon="6.41791">
        <ele>247.68</ele>
        <time>2015-09-14T08:19:26Z</time>
      </trkpt>
      <trkpt lat="43.50423" lon="6.41813">
        <ele>248.16</ele>
        <time>2015-09-14T08:19:43Z</time>
      </trkpt>
      <trkpt lat="43.50422" lon="6.41814">
        <ele>248.16</ele>
        <time>2015-09-14T08:19:44Z</time>
      </trkpt>
      <trkpt lat="43.5041" lon="6.41823">
        <ele>248.64</ele>
        <time>2015-09-14T08:19:52Z</time>
      </trkpt>
      <trkpt lat="43.50391" lon="6.4184">
        <ele>248.16</ele>
        <time>2015-09-14T08:20:06Z</time>
      </trkpt>
      <trkpt lat="43.50388" lon="6.41844">
        <ele>248.16</ele>
        <time>2015-09-14T08:20:09Z</time>
      </trkpt>
      <trkpt lat="43.50387" lon="6.41847">
        <ele>248.16</ele>
        <time>2015-09-14T08:20:11Z</time>
      </trkpt>
      <trkpt lat="43.50382" lon="6.41853">
        <ele>247.68</ele>
        <time>2015-09-14T08:20:17Z</time>
      </trkpt>
      <trkpt lat="43.50379" lon="6.41856">
        <ele>247.68</ele>
        <time>2015-09-14T08:20:20Z</time>
      </trkpt>
      <trkpt lat="43.50363" lon="6.41867">
        <ele>246.23</ele>
        <time>2015-09-14T08:20:34Z</time>
      </trkpt>
      <trkpt lat="43.50345" lon="6.41874">
        <ele>244.31</ele>
        <time>2015-09-14T08:20:49Z</time>
      </trkpt>
      <trkpt lat="43.50332" lon="6.4188">
        <ele>242.87</ele>
        <time>2015-09-14T08:21:02Z</time>
      </trkpt>
      <trkpt lat="43.50313" lon="6.41884">
        <ele>240.95</ele>
        <time>2015-09-14T08:21:16Z</time>
      </trkpt>
      <trkpt lat="43.50293" lon="6.41893">
        <ele>237.58</ele>
        <time>2015-09-14T08:21:31Z</time>
      </trkpt>
      <trkpt lat="43.50277" lon="6.41901">
        <ele>234.7</ele>
        <time>2015-09-14T08:21:44Z</time>
      </trkpt>
      <trkpt lat="43.50259" lon="6.41914">
        <ele>231.81</ele>
        <time>2015-09-14T08:21:59Z</time>
      </trkpt>
      <trkpt lat="43.50254" lon="6.4192">
        <ele>231.33</ele>
        <time>2015-09-14T08:22:04Z</time>
      </trkpt>
      <trkpt lat="43.50247" lon="6.41925">
        <ele>231.33</ele>
        <time>2015-09-14T08:22:13Z</time>
      </trkpt>
      <trkpt lat="43.50245" lon="6.41925">
        <ele>231.33</ele>
        <time>2015-09-14T08:22:15Z</time>
      </trkpt>
      <trkpt lat="43.50242" lon="6.41926">
        <ele>231.33</ele>
        <time>2015-09-14T08:22:18Z</time>
      </trkpt>
      <trkpt lat="43.50235" lon="6.41925">
        <ele>231.33</ele>
        <time>2015-09-14T08:22:24Z</time>
      </trkpt>
      <trkpt lat="43.50233" lon="6.41924">
        <ele>230.85</ele>
        <time>2015-09-14T08:22:26Z</time>
      </trkpt>
      <trkpt lat="43.50217" lon="6.41922">
        <ele>231.33</ele>
        <time>2015-09-14T08:22:40Z</time>
      </trkpt>
      <trkpt lat="43.50213" lon="6.41925">
        <ele>230.85</ele>
        <time>2015-09-14T08:22:50Z</time>
      </trkpt>
      <trkpt lat="43.50208" lon="6.41932">
        <ele>231.33</ele>
        <time>2015-09-14T08:22:57Z</time>
      </trkpt>
      <trkpt lat="43.50203" lon="6.41935">
        <ele>231.33</ele>
        <time>2015-09-14T08:23:02Z</time>
      </trkpt>
      <trkpt lat="43.50201" lon="6.41937">
        <ele>230.85</ele>
        <time>2015-09-14T08:23:04Z</time>
      </trkpt>
      <trkpt lat="43.50193" lon="6.41942">
        <ele>231.81</ele>
        <time>2015-09-14T08:23:18Z</time>
      </trkpt>
      <trkpt lat="43.5019" lon="6.41943">
        <ele>231.81</ele>
        <time>2015-09-14T08:23:22Z</time>
      </trkpt>
      <trkpt lat="43.50186" lon="6.41944">
        <ele>232.78</ele>
        <time>2015-09-14T08:23:26Z</time>
      </trkpt>
      <trkpt lat="43.50175" lon="6.41949">
        <ele>233.74</ele>
        <time>2015-09-14T08:23:37Z</time>
      </trkpt>
      <trkpt lat="43.50165" lon="6.41953">
        <ele>234.7</ele>
        <time>2015-09-14T08:23:46Z</time>
      </trkpt>
      <trkpt lat="43.50158" lon="6.4196">
        <ele>235.18</ele>
        <time>2015-09-14T08:24:02Z</time>
      </trkpt>
      <trkpt lat="43.50155" lon="6.41964">
        <ele>235.66</ele>
        <time>2015-09-14T08:24:14Z</time>
      </trkpt>
      <trkpt lat="43.50154" lon="6.41964">
        <ele>235.66</ele>
        <time>2015-09-14T08:24:29Z</time>
      </trkpt>
      <trkpt lat="43.50153" lon="6.41964">
        <ele>235.66</ele>
        <time>2015-09-14T08:24:37Z</time>
      </trkpt>
    </trkseg>
  </trk>
</gpx>